<?xml version="1.0" encoding="UTF-8" standalone="no" ?>
<gpx xmlns="http://www.topografix.com/GPX/1/1" xmlns:xsi="http://www.w3.org/2001/XMLSchema-instance" xsi:schemaLocation="http://www.topografix.com/GPX/1/1 http://www.topografix.com/GPX/1/1/gpx.xsd" version="1.1" creator="VisuGPX - https://www.visugpx.com">
  <metadata>
    <name>Pré de cinq sous et Pas du Mai</name>
    <desc><![CDATA[grp_trc:]]></desc>
  </metadata>
  <trk>
    <name><![CDATA[21 mars 2023]]></name>
    <cmt><![CDATA[08:51:34]]></cmt>
    <desc><![CDATA[comment ...]]></desc>
    <trkseg>
      <trkpt lat="44.99161" lon="5.19863">
        <ele>508</ele>
        <time>2023-03-21T07:51:36Z</time>
      </trkpt>
      <trkpt lat="44.99161" lon="5.19863">
        <ele>508</ele>
        <time>2023-03-21T07:51:37Z</time>
      </trkpt>
      <trkpt lat="44.99158" lon="5.19871">
        <ele>511</ele>
        <time>2023-03-21T07:52:39Z</time>
      </trkpt>
      <trkpt lat="44.99155" lon="5.19876">
        <ele>512</ele>
        <time>2023-03-21T07:54:49Z</time>
      </trkpt>
      <trkpt lat="44.99153" lon="5.19884">
        <ele>515</ele>
        <time>2023-03-21T07:55:56Z</time>
      </trkpt>
      <trkpt lat="44.99158" lon="5.19887">
        <ele>520</ele>
        <time>2023-03-21T07:56:26Z</time>
      </trkpt>
      <trkpt lat="44.99161" lon="5.19895">
        <ele>518</ele>
        <time>2023-03-21T07:56:40Z</time>
      </trkpt>
      <trkpt lat="44.99165" lon="5.19906">
        <ele>515</ele>
        <time>2023-03-21T07:56:56Z</time>
      </trkpt>
      <trkpt lat="44.99169" lon="5.19924">
        <ele>514</ele>
        <time>2023-03-21T07:57:10Z</time>
      </trkpt>
      <trkpt lat="44.99172" lon="5.19934">
        <ele>515</ele>
        <time>2023-03-21T07:57:19Z</time>
      </trkpt>
      <trkpt lat="44.99187" lon="5.19966">
        <ele>519</ele>
        <time>2023-03-21T07:57:52Z</time>
      </trkpt>
      <trkpt lat="44.99205" lon="5.20001">
        <ele>522</ele>
        <time>2023-03-21T07:58:25Z</time>
      </trkpt>
      <trkpt lat="44.99215" lon="5.20023">
        <ele>524</ele>
        <time>2023-03-21T07:58:46Z</time>
      </trkpt>
      <trkpt lat="44.99221" lon="5.20043">
        <ele>526</ele>
        <time>2023-03-21T07:59:02Z</time>
      </trkpt>
      <trkpt lat="44.99224" lon="5.20053">
        <ele>528</ele>
        <time>2023-03-21T07:59:10Z</time>
      </trkpt>
      <trkpt lat="44.99227" lon="5.20064">
        <ele>529</ele>
        <time>2023-03-21T07:59:18Z</time>
      </trkpt>
      <trkpt lat="44.99239" lon="5.20112">
        <ele>536</ele>
        <time>2023-03-21T07:59:54Z</time>
      </trkpt>
      <trkpt lat="44.99241" lon="5.2012">
        <ele>536</ele>
        <time>2023-03-21T08:00:00Z</time>
      </trkpt>
      <trkpt lat="44.99247" lon="5.20122">
        <ele>536</ele>
        <time>2023-03-21T08:00:22Z</time>
      </trkpt>
      <trkpt lat="44.99252" lon="5.20124">
        <ele>538</ele>
        <time>2023-03-21T08:00:33Z</time>
      </trkpt>
      <trkpt lat="44.99258" lon="5.20128">
        <ele>539</ele>
        <time>2023-03-21T08:00:42Z</time>
      </trkpt>
      <trkpt lat="44.99264" lon="5.20134">
        <ele>542</ele>
        <time>2023-03-21T08:00:51Z</time>
      </trkpt>
      <trkpt lat="44.99267" lon="5.20126">
        <ele>545</ele>
        <time>2023-03-21T08:01:16Z</time>
      </trkpt>
      <trkpt lat="44.99274" lon="5.20125">
        <ele>546</ele>
        <time>2023-03-21T08:01:32Z</time>
      </trkpt>
      <trkpt lat="44.9928" lon="5.20123">
        <ele>553</ele>
        <time>2023-03-21T08:01:48Z</time>
      </trkpt>
      <trkpt lat="44.99288" lon="5.20127">
        <ele>556</ele>
        <time>2023-03-21T08:02:02Z</time>
      </trkpt>
      <trkpt lat="44.99296" lon="5.20139">
        <ele>557</ele>
        <time>2023-03-21T08:02:23Z</time>
      </trkpt>
      <trkpt lat="44.99309" lon="5.20158">
        <ele>562</ele>
        <time>2023-03-21T08:02:53Z</time>
      </trkpt>
      <trkpt lat="44.99313" lon="5.20156">
        <ele>564</ele>
        <time>2023-03-21T08:03:11Z</time>
      </trkpt>
      <trkpt lat="44.99317" lon="5.20158">
        <ele>566</ele>
        <time>2023-03-21T08:03:17Z</time>
      </trkpt>
      <trkpt lat="44.9932" lon="5.2016">
        <ele>569</ele>
        <time>2023-03-21T08:03:29Z</time>
      </trkpt>
      <trkpt lat="44.99324" lon="5.20167">
        <ele>569</ele>
        <time>2023-03-21T08:03:34Z</time>
      </trkpt>
      <trkpt lat="44.99336" lon="5.20185">
        <ele>573</ele>
        <time>2023-03-21T08:03:58Z</time>
      </trkpt>
      <trkpt lat="44.99339" lon="5.20193">
        <ele>574</ele>
        <time>2023-03-21T08:04:05Z</time>
      </trkpt>
      <trkpt lat="44.99345" lon="5.20199">
        <ele>576</ele>
        <time>2023-03-21T08:04:19Z</time>
      </trkpt>
      <trkpt lat="44.99349" lon="5.20206">
        <ele>579</ele>
        <time>2023-03-21T08:04:28Z</time>
      </trkpt>
      <trkpt lat="44.99351" lon="5.20218">
        <ele>580</ele>
        <time>2023-03-21T08:04:37Z</time>
      </trkpt>
      <trkpt lat="44.99355" lon="5.20218">
        <ele>580</ele>
        <time>2023-03-21T08:05:09Z</time>
      </trkpt>
      <trkpt lat="44.99358" lon="5.20211">
        <ele>582</ele>
        <time>2023-03-21T08:05:22Z</time>
      </trkpt>
      <trkpt lat="44.99361" lon="5.20191">
        <ele>589</ele>
        <time>2023-03-21T08:05:53Z</time>
      </trkpt>
      <trkpt lat="44.99364" lon="5.20183">
        <ele>590</ele>
        <time>2023-03-21T08:06:07Z</time>
      </trkpt>
      <trkpt lat="44.99364" lon="5.20172">
        <ele>591</ele>
        <time>2023-03-21T08:06:21Z</time>
      </trkpt>
      <trkpt lat="44.99367" lon="5.20163">
        <ele>593</ele>
        <time>2023-03-21T08:06:38Z</time>
      </trkpt>
      <trkpt lat="44.99368" lon="5.20156">
        <ele>598</ele>
        <time>2023-03-21T08:06:50Z</time>
      </trkpt>
      <trkpt lat="44.99369" lon="5.2013">
        <ele>602</ele>
        <time>2023-03-21T08:08:44Z</time>
      </trkpt>
      <trkpt lat="44.99378" lon="5.20136">
        <ele>604</ele>
        <time>2023-03-21T08:09:09Z</time>
      </trkpt>
      <trkpt lat="44.99385" lon="5.20137">
        <ele>615</ele>
        <time>2023-03-21T08:09:27Z</time>
      </trkpt>
      <trkpt lat="44.99392" lon="5.20143">
        <ele>617</ele>
        <time>2023-03-21T08:09:45Z</time>
      </trkpt>
      <trkpt lat="44.99405" lon="5.20154">
        <ele>622</ele>
        <time>2023-03-21T08:10:18Z</time>
      </trkpt>
      <trkpt lat="44.99414" lon="5.20163">
        <ele>625</ele>
        <time>2023-03-21T08:10:51Z</time>
      </trkpt>
      <trkpt lat="44.99421" lon="5.20167">
        <ele>629</ele>
        <time>2023-03-21T08:11:05Z</time>
      </trkpt>
      <trkpt lat="44.99434" lon="5.2017">
        <ele>636</ele>
        <time>2023-03-21T08:11:38Z</time>
      </trkpt>
      <trkpt lat="44.9944" lon="5.20166">
        <ele>638</ele>
        <time>2023-03-21T08:12:06Z</time>
      </trkpt>
      <trkpt lat="44.99453" lon="5.2017">
        <ele>644</ele>
        <time>2023-03-21T08:12:44Z</time>
      </trkpt>
      <trkpt lat="44.99456" lon="5.20161">
        <ele>653</ele>
        <time>2023-03-21T08:13:22Z</time>
      </trkpt>
      <trkpt lat="44.99456" lon="5.20152">
        <ele>657</ele>
        <time>2023-03-21T08:13:37Z</time>
      </trkpt>
      <trkpt lat="44.99456" lon="5.20143">
        <ele>658</ele>
        <time>2023-03-21T08:13:52Z</time>
      </trkpt>
      <trkpt lat="44.99457" lon="5.20125">
        <ele>665</ele>
        <time>2023-03-21T08:14:20Z</time>
      </trkpt>
      <trkpt lat="44.99461" lon="5.20118">
        <ele>667</ele>
        <time>2023-03-21T08:14:38Z</time>
      </trkpt>
      <trkpt lat="44.99471" lon="5.20126">
        <ele>674</ele>
        <time>2023-03-21T08:15:28Z</time>
      </trkpt>
      <trkpt lat="44.99477" lon="5.20125">
        <ele>675</ele>
        <time>2023-03-21T08:15:41Z</time>
      </trkpt>
      <trkpt lat="44.99483" lon="5.20129">
        <ele>676</ele>
        <time>2023-03-21T08:15:57Z</time>
      </trkpt>
      <trkpt lat="44.99498" lon="5.20136">
        <ele>682</ele>
        <time>2023-03-21T08:16:35Z</time>
      </trkpt>
      <trkpt lat="44.99505" lon="5.20143">
        <ele>687</ele>
        <time>2023-03-21T08:16:50Z</time>
      </trkpt>
      <trkpt lat="44.9951" lon="5.20148">
        <ele>688</ele>
        <time>2023-03-21T08:17:06Z</time>
      </trkpt>
      <trkpt lat="44.99516" lon="5.20155">
        <ele>691</ele>
        <time>2023-03-21T08:17:21Z</time>
      </trkpt>
      <trkpt lat="44.99522" lon="5.20161">
        <ele>696</ele>
        <time>2023-03-21T08:17:43Z</time>
      </trkpt>
      <trkpt lat="44.99529" lon="5.20166">
        <ele>697</ele>
        <time>2023-03-21T08:18:01Z</time>
      </trkpt>
      <trkpt lat="44.99535" lon="5.20173">
        <ele>702</ele>
        <time>2023-03-21T08:18:22Z</time>
      </trkpt>
      <trkpt lat="44.99542" lon="5.20183">
        <ele>704</ele>
        <time>2023-03-21T08:18:41Z</time>
      </trkpt>
      <trkpt lat="44.9955" lon="5.20201">
        <ele>709</ele>
        <time>2023-03-21T08:19:17Z</time>
      </trkpt>
      <trkpt lat="44.99557" lon="5.20205">
        <ele>712</ele>
        <time>2023-03-21T08:19:33Z</time>
      </trkpt>
      <trkpt lat="44.9956" lon="5.20212">
        <ele>714</ele>
        <time>2023-03-21T08:19:46Z</time>
      </trkpt>
      <trkpt lat="44.99565" lon="5.20223">
        <ele>717</ele>
        <time>2023-03-21T08:20:27Z</time>
      </trkpt>
      <trkpt lat="44.99572" lon="5.20232">
        <ele>725</ele>
        <time>2023-03-21T08:20:47Z</time>
      </trkpt>
      <trkpt lat="44.99578" lon="5.2024">
        <ele>729</ele>
        <time>2023-03-21T08:21:13Z</time>
      </trkpt>
      <trkpt lat="44.99584" lon="5.20248">
        <ele>732</ele>
        <time>2023-03-21T08:21:34Z</time>
      </trkpt>
      <trkpt lat="44.99589" lon="5.20257">
        <ele>737</ele>
        <time>2023-03-21T08:21:53Z</time>
      </trkpt>
      <trkpt lat="44.99592" lon="5.20268">
        <ele>739</ele>
        <time>2023-03-21T08:22:15Z</time>
      </trkpt>
      <trkpt lat="44.99598" lon="5.20281">
        <ele>740</ele>
        <time>2023-03-21T08:22:31Z</time>
      </trkpt>
      <trkpt lat="44.99597" lon="5.20296">
        <ele>745</ele>
        <time>2023-03-21T08:22:55Z</time>
      </trkpt>
      <trkpt lat="44.99596" lon="5.20311">
        <ele>748</ele>
        <time>2023-03-21T08:23:19Z</time>
      </trkpt>
      <trkpt lat="44.99596" lon="5.20321">
        <ele>750</ele>
        <time>2023-03-21T08:23:44Z</time>
      </trkpt>
      <trkpt lat="44.996" lon="5.2033">
        <ele>754</ele>
        <time>2023-03-21T08:24:06Z</time>
      </trkpt>
      <trkpt lat="44.99599" lon="5.20338">
        <ele>757</ele>
        <time>2023-03-21T08:24:18Z</time>
      </trkpt>
      <trkpt lat="44.99604" lon="5.20344">
        <ele>757</ele>
        <time>2023-03-21T08:24:47Z</time>
      </trkpt>
      <trkpt lat="44.99606" lon="5.20355">
        <ele>761</ele>
        <time>2023-03-21T08:25:49Z</time>
      </trkpt>
      <trkpt lat="44.99603" lon="5.20376">
        <ele>769</ele>
        <time>2023-03-21T08:26:25Z</time>
      </trkpt>
      <trkpt lat="44.99604" lon="5.20391">
        <ele>771</ele>
        <time>2023-03-21T08:26:51Z</time>
      </trkpt>
      <trkpt lat="44.99605" lon="5.20401">
        <ele>775</ele>
        <time>2023-03-21T08:27:47Z</time>
      </trkpt>
      <trkpt lat="44.99597" lon="5.20397">
        <ele>785</ele>
        <time>2023-03-21T08:34:03Z</time>
      </trkpt>
      <trkpt lat="44.99595" lon="5.20386">
        <ele>785</ele>
        <time>2023-03-21T08:34:27Z</time>
      </trkpt>
      <trkpt lat="44.99597" lon="5.20375">
        <ele>771</ele>
        <time>2023-03-21T08:34:51Z</time>
      </trkpt>
      <trkpt lat="44.99597" lon="5.2036">
        <ele>771</ele>
        <time>2023-03-21T08:35:04Z</time>
      </trkpt>
      <trkpt lat="44.99601" lon="5.20349">
        <ele>769</ele>
        <time>2023-03-21T08:35:21Z</time>
      </trkpt>
      <trkpt lat="44.99602" lon="5.20341">
        <ele>769</ele>
        <time>2023-03-21T08:35:32Z</time>
      </trkpt>
      <trkpt lat="44.99606" lon="5.2033">
        <ele>767</ele>
        <time>2023-03-21T08:36:04Z</time>
      </trkpt>
      <trkpt lat="44.99612" lon="5.20328">
        <ele>768</ele>
        <time>2023-03-21T08:36:24Z</time>
      </trkpt>
      <trkpt lat="44.99618" lon="5.20328">
        <ele>770</ele>
        <time>2023-03-21T08:36:41Z</time>
      </trkpt>
      <trkpt lat="44.99626" lon="5.20319">
        <ele>772</ele>
        <time>2023-03-21T08:37:14Z</time>
      </trkpt>
      <trkpt lat="44.99634" lon="5.20312">
        <ele>780</ele>
        <time>2023-03-21T08:37:57Z</time>
      </trkpt>
      <trkpt lat="44.9964" lon="5.20301">
        <ele>786</ele>
        <time>2023-03-21T08:38:33Z</time>
      </trkpt>
      <trkpt lat="44.99641" lon="5.2029">
        <ele>800</ele>
        <time>2023-03-21T08:38:58Z</time>
      </trkpt>
      <trkpt lat="44.99646" lon="5.20283">
        <ele>803</ele>
        <time>2023-03-21T08:39:32Z</time>
      </trkpt>
      <trkpt lat="44.99656" lon="5.2028">
        <ele>807</ele>
        <time>2023-03-21T08:39:57Z</time>
      </trkpt>
      <trkpt lat="44.99663" lon="5.20274">
        <ele>809</ele>
        <time>2023-03-21T08:40:36Z</time>
      </trkpt>
      <trkpt lat="44.9967" lon="5.20269">
        <ele>812</ele>
        <time>2023-03-21T08:41:01Z</time>
      </trkpt>
      <trkpt lat="44.99677" lon="5.20254">
        <ele>820</ele>
        <time>2023-03-21T08:41:56Z</time>
      </trkpt>
      <trkpt lat="44.99682" lon="5.20247">
        <ele>822</ele>
        <time>2023-03-21T08:42:12Z</time>
      </trkpt>
      <trkpt lat="44.99697" lon="5.20242">
        <ele>829</ele>
        <time>2023-03-21T08:42:52Z</time>
      </trkpt>
      <trkpt lat="44.99704" lon="5.20243">
        <ele>830</ele>
        <time>2023-03-21T08:43:04Z</time>
      </trkpt>
      <trkpt lat="44.99708" lon="5.20246">
        <ele>829</ele>
        <time>2023-03-21T08:43:28Z</time>
      </trkpt>
      <trkpt lat="44.99715" lon="5.2025">
        <ele>829</ele>
        <time>2023-03-21T08:44:45Z</time>
      </trkpt>
      <trkpt lat="44.99721" lon="5.20255">
        <ele>829</ele>
        <time>2023-03-21T08:44:53Z</time>
      </trkpt>
      <trkpt lat="44.99734" lon="5.20264">
        <ele>833</ele>
        <time>2023-03-21T08:45:11Z</time>
      </trkpt>
      <trkpt lat="44.99741" lon="5.20267">
        <ele>834</ele>
        <time>2023-03-21T08:45:21Z</time>
      </trkpt>
      <trkpt lat="44.99746" lon="5.20273">
        <ele>834</ele>
        <time>2023-03-21T08:45:28Z</time>
      </trkpt>
      <trkpt lat="44.99754" lon="5.20278">
        <ele>834</ele>
        <time>2023-03-21T08:45:51Z</time>
      </trkpt>
      <trkpt lat="44.99761" lon="5.20282">
        <ele>835</ele>
        <time>2023-03-21T08:46:02Z</time>
      </trkpt>
      <trkpt lat="44.99768" lon="5.20289">
        <ele>836</ele>
        <time>2023-03-21T08:46:14Z</time>
      </trkpt>
      <trkpt lat="44.99775" lon="5.20295">
        <ele>840</ele>
        <time>2023-03-21T08:46:26Z</time>
      </trkpt>
      <trkpt lat="44.99795" lon="5.20324">
        <ele>847</ele>
        <time>2023-03-21T08:47:07Z</time>
      </trkpt>
      <trkpt lat="44.99799" lon="5.20331">
        <ele>848</ele>
        <time>2023-03-21T08:47:19Z</time>
      </trkpt>
      <trkpt lat="44.99806" lon="5.20348">
        <ele>851</ele>
        <time>2023-03-21T08:47:38Z</time>
      </trkpt>
      <trkpt lat="44.99811" lon="5.20354">
        <ele>854</ele>
        <time>2023-03-21T08:47:46Z</time>
      </trkpt>
      <trkpt lat="44.99815" lon="5.20363">
        <ele>854</ele>
        <time>2023-03-21T08:47:57Z</time>
      </trkpt>
      <trkpt lat="44.99819" lon="5.2037">
        <ele>857</ele>
        <time>2023-03-21T08:48:06Z</time>
      </trkpt>
      <trkpt lat="44.99825" lon="5.20376">
        <ele>858</ele>
        <time>2023-03-21T08:48:19Z</time>
      </trkpt>
      <trkpt lat="44.99834" lon="5.20392">
        <ele>862</ele>
        <time>2023-03-21T08:48:37Z</time>
      </trkpt>
      <trkpt lat="44.99838" lon="5.20399">
        <ele>863</ele>
        <time>2023-03-21T08:48:46Z</time>
      </trkpt>
      <trkpt lat="44.99842" lon="5.2041">
        <ele>864</ele>
        <time>2023-03-21T08:49:02Z</time>
      </trkpt>
      <trkpt lat="44.99845" lon="5.20418">
        <ele>865</ele>
        <time>2023-03-21T08:49:11Z</time>
      </trkpt>
      <trkpt lat="44.99848" lon="5.20425">
        <ele>865</ele>
        <time>2023-03-21T08:49:17Z</time>
      </trkpt>
      <trkpt lat="44.99852" lon="5.20432">
        <ele>867</ele>
        <time>2023-03-21T08:49:33Z</time>
      </trkpt>
      <trkpt lat="44.99859" lon="5.2043">
        <ele>868</ele>
        <time>2023-03-21T08:49:45Z</time>
      </trkpt>
      <trkpt lat="44.99864" lon="5.20425">
        <ele>869</ele>
        <time>2023-03-21T08:49:52Z</time>
      </trkpt>
      <trkpt lat="44.99869" lon="5.20417">
        <ele>868</ele>
        <time>2023-03-21T08:50:07Z</time>
      </trkpt>
      <trkpt lat="44.99881" lon="5.20408">
        <ele>871</ele>
        <time>2023-03-21T08:50:27Z</time>
      </trkpt>
      <trkpt lat="44.99888" lon="5.20407">
        <ele>874</ele>
        <time>2023-03-21T08:50:40Z</time>
      </trkpt>
      <trkpt lat="44.99906" lon="5.20414">
        <ele>880</ele>
        <time>2023-03-21T08:51:07Z</time>
      </trkpt>
      <trkpt lat="44.99912" lon="5.20419">
        <ele>880</ele>
        <time>2023-03-21T08:51:17Z</time>
      </trkpt>
      <trkpt lat="44.9992" lon="5.20433">
        <ele>882</ele>
        <time>2023-03-21T08:51:33Z</time>
      </trkpt>
      <trkpt lat="44.99927" lon="5.20453">
        <ele>887</ele>
        <time>2023-03-21T08:51:57Z</time>
      </trkpt>
      <trkpt lat="44.99929" lon="5.2046">
        <ele>890</ele>
        <time>2023-03-21T08:52:06Z</time>
      </trkpt>
      <trkpt lat="44.99926" lon="5.20467">
        <ele>891</ele>
        <time>2023-03-21T08:52:18Z</time>
      </trkpt>
      <trkpt lat="44.99927" lon="5.20474">
        <ele>894</ele>
        <time>2023-03-21T08:52:27Z</time>
      </trkpt>
      <trkpt lat="44.99928" lon="5.20482">
        <ele>896</ele>
        <time>2023-03-21T08:52:38Z</time>
      </trkpt>
      <trkpt lat="44.99931" lon="5.20496">
        <ele>900</ele>
        <time>2023-03-21T08:52:56Z</time>
      </trkpt>
      <trkpt lat="44.9993" lon="5.20503">
        <ele>902</ele>
        <time>2023-03-21T08:53:04Z</time>
      </trkpt>
      <trkpt lat="44.99931" lon="5.20512">
        <ele>903</ele>
        <time>2023-03-21T08:53:13Z</time>
      </trkpt>
      <trkpt lat="44.99927" lon="5.20526">
        <ele>906</ele>
        <time>2023-03-21T08:53:30Z</time>
      </trkpt>
      <trkpt lat="44.99924" lon="5.20545">
        <ele>909</ele>
        <time>2023-03-21T08:53:47Z</time>
      </trkpt>
      <trkpt lat="44.99923" lon="5.20555">
        <ele>911</ele>
        <time>2023-03-21T08:53:59Z</time>
      </trkpt>
      <trkpt lat="44.99916" lon="5.20573">
        <ele>913</ele>
        <time>2023-03-21T08:54:18Z</time>
      </trkpt>
      <trkpt lat="44.99912" lon="5.20582">
        <ele>914</ele>
        <time>2023-03-21T08:54:28Z</time>
      </trkpt>
      <trkpt lat="44.99909" lon="5.20594">
        <ele>915</ele>
        <time>2023-03-21T08:54:39Z</time>
      </trkpt>
      <trkpt lat="44.99909" lon="5.20603">
        <ele>915</ele>
        <time>2023-03-21T08:54:48Z</time>
      </trkpt>
      <trkpt lat="44.99895" lon="5.20629">
        <ele>918</ele>
        <time>2023-03-21T08:55:17Z</time>
      </trkpt>
      <trkpt lat="44.99895" lon="5.2064">
        <ele>918</ele>
        <time>2023-03-21T08:55:25Z</time>
      </trkpt>
      <trkpt lat="44.99891" lon="5.2065">
        <ele>921</ele>
        <time>2023-03-21T08:55:35Z</time>
      </trkpt>
      <trkpt lat="44.9989" lon="5.2067">
        <ele>926</ele>
        <time>2023-03-21T08:56:00Z</time>
      </trkpt>
      <trkpt lat="44.99882" lon="5.20694">
        <ele>929</ele>
        <time>2023-03-21T08:56:34Z</time>
      </trkpt>
      <trkpt lat="44.99875" lon="5.20715">
        <ele>932</ele>
        <time>2023-03-21T08:57:02Z</time>
      </trkpt>
      <trkpt lat="44.99868" lon="5.20727">
        <ele>935</ele>
        <time>2023-03-21T08:57:19Z</time>
      </trkpt>
      <trkpt lat="44.99866" lon="5.20732">
        <ele>936</ele>
        <time>2023-03-21T08:57:26Z</time>
      </trkpt>
      <trkpt lat="44.99864" lon="5.20739">
        <ele>936</ele>
        <time>2023-03-21T08:57:33Z</time>
      </trkpt>
      <trkpt lat="44.9986" lon="5.20744">
        <ele>936</ele>
        <time>2023-03-21T08:57:40Z</time>
      </trkpt>
      <trkpt lat="44.99857" lon="5.20751">
        <ele>937</ele>
        <time>2023-03-21T08:57:48Z</time>
      </trkpt>
      <trkpt lat="44.99852" lon="5.20757">
        <ele>938</ele>
        <time>2023-03-21T08:57:55Z</time>
      </trkpt>
      <trkpt lat="44.99848" lon="5.20762">
        <ele>937</ele>
        <time>2023-03-21T08:58:03Z</time>
      </trkpt>
      <trkpt lat="44.99844" lon="5.20762">
        <ele>938</ele>
        <time>2023-03-21T08:58:32Z</time>
      </trkpt>
      <trkpt lat="44.9984" lon="5.20762">
        <ele>938</ele>
        <time>2023-03-21T08:58:51Z</time>
      </trkpt>
      <trkpt lat="44.99842" lon="5.20759">
        <ele>940</ele>
        <time>2023-03-21T09:04:08Z</time>
      </trkpt>
      <trkpt lat="44.99846" lon="5.20765">
        <ele>939</ele>
        <time>2023-03-21T09:05:16Z</time>
      </trkpt>
      <trkpt lat="44.99846" lon="5.20772">
        <ele>939</ele>
        <time>2023-03-21T09:05:22Z</time>
      </trkpt>
      <trkpt lat="44.99848" lon="5.20783">
        <ele>939</ele>
        <time>2023-03-21T09:05:35Z</time>
      </trkpt>
      <trkpt lat="44.99858" lon="5.2079">
        <ele>938</ele>
        <time>2023-03-21T09:05:52Z</time>
      </trkpt>
      <trkpt lat="44.99863" lon="5.20792">
        <ele>937</ele>
        <time>2023-03-21T09:05:58Z</time>
      </trkpt>
      <trkpt lat="44.99874" lon="5.20795">
        <ele>937</ele>
        <time>2023-03-21T09:06:12Z</time>
      </trkpt>
      <trkpt lat="44.99904" lon="5.20815">
        <ele>933</ele>
        <time>2023-03-21T09:06:47Z</time>
      </trkpt>
      <trkpt lat="44.99916" lon="5.2083">
        <ele>932</ele>
        <time>2023-03-21T09:07:03Z</time>
      </trkpt>
      <trkpt lat="44.99923" lon="5.20835">
        <ele>931</ele>
        <time>2023-03-21T09:07:10Z</time>
      </trkpt>
      <trkpt lat="44.99933" lon="5.20851">
        <ele>929</ele>
        <time>2023-03-21T09:07:26Z</time>
      </trkpt>
      <trkpt lat="44.99941" lon="5.20864">
        <ele>927</ele>
        <time>2023-03-21T09:07:38Z</time>
      </trkpt>
      <trkpt lat="44.99944" lon="5.20871">
        <ele>927</ele>
        <time>2023-03-21T09:07:44Z</time>
      </trkpt>
      <trkpt lat="44.99947" lon="5.20878">
        <ele>926</ele>
        <time>2023-03-21T09:07:49Z</time>
      </trkpt>
      <trkpt lat="44.99944" lon="5.20904">
        <ele>924</ele>
        <time>2023-03-21T09:08:07Z</time>
      </trkpt>
      <trkpt lat="44.99944" lon="5.20912">
        <ele>924</ele>
        <time>2023-03-21T09:08:12Z</time>
      </trkpt>
      <trkpt lat="44.99944" lon="5.20929">
        <ele>925</ele>
        <time>2023-03-21T09:08:23Z</time>
      </trkpt>
      <trkpt lat="44.99942" lon="5.20945">
        <ele>925</ele>
        <time>2023-03-21T09:08:35Z</time>
      </trkpt>
      <trkpt lat="44.99943" lon="5.2097">
        <ele>925</ele>
        <time>2023-03-21T09:08:51Z</time>
      </trkpt>
      <trkpt lat="44.99945" lon="5.20977">
        <ele>927</ele>
        <time>2023-03-21T09:08:59Z</time>
      </trkpt>
      <trkpt lat="44.99948" lon="5.20983">
        <ele>928</ele>
        <time>2023-03-21T09:09:05Z</time>
      </trkpt>
      <trkpt lat="44.9996" lon="5.21018">
        <ele>935</ele>
        <time>2023-03-21T09:09:39Z</time>
      </trkpt>
      <trkpt lat="44.99963" lon="5.21027">
        <ele>935</ele>
        <time>2023-03-21T09:09:51Z</time>
      </trkpt>
      <trkpt lat="44.9996" lon="5.21035">
        <ele>934</ele>
        <time>2023-03-21T09:09:56Z</time>
      </trkpt>
      <trkpt lat="44.99956" lon="5.21039">
        <ele>934</ele>
        <time>2023-03-21T09:10:01Z</time>
      </trkpt>
      <trkpt lat="44.99947" lon="5.21034">
        <ele>933</ele>
        <time>2023-03-21T09:10:14Z</time>
      </trkpt>
      <trkpt lat="44.99949" lon="5.2104">
        <ele>935</ele>
        <time>2023-03-21T09:10:51Z</time>
      </trkpt>
      <trkpt lat="44.99952" lon="5.21047">
        <ele>936</ele>
        <time>2023-03-21T09:10:58Z</time>
      </trkpt>
      <trkpt lat="44.99951" lon="5.21052">
        <ele>939</ele>
        <time>2023-03-21T09:11:06Z</time>
      </trkpt>
      <trkpt lat="44.9995" lon="5.21059">
        <ele>940</ele>
        <time>2023-03-21T09:11:12Z</time>
      </trkpt>
      <trkpt lat="44.99949" lon="5.21066">
        <ele>943</ele>
        <time>2023-03-21T09:11:23Z</time>
      </trkpt>
      <trkpt lat="44.99951" lon="5.21075">
        <ele>946</ele>
        <time>2023-03-21T09:11:35Z</time>
      </trkpt>
      <trkpt lat="44.99956" lon="5.21087">
        <ele>947</ele>
        <time>2023-03-21T09:11:46Z</time>
      </trkpt>
      <trkpt lat="44.99958" lon="5.21095">
        <ele>948</ele>
        <time>2023-03-21T09:11:54Z</time>
      </trkpt>
      <trkpt lat="44.99957" lon="5.21103">
        <ele>950</ele>
        <time>2023-03-21T09:12:04Z</time>
      </trkpt>
      <trkpt lat="44.99955" lon="5.2111">
        <ele>951</ele>
        <time>2023-03-21T09:12:14Z</time>
      </trkpt>
      <trkpt lat="44.99955" lon="5.21119">
        <ele>951</ele>
        <time>2023-03-21T09:12:22Z</time>
      </trkpt>
      <trkpt lat="44.99958" lon="5.21127">
        <ele>950</ele>
        <time>2023-03-21T09:12:29Z</time>
      </trkpt>
      <trkpt lat="44.99958" lon="5.21136">
        <ele>946</ele>
        <time>2023-03-21T09:12:47Z</time>
      </trkpt>
      <trkpt lat="44.99952" lon="5.2115">
        <ele>948</ele>
        <time>2023-03-21T09:13:02Z</time>
      </trkpt>
      <trkpt lat="44.99951" lon="5.21158">
        <ele>948</ele>
        <time>2023-03-21T09:13:07Z</time>
      </trkpt>
      <trkpt lat="44.99949" lon="5.21166">
        <ele>948</ele>
        <time>2023-03-21T09:13:13Z</time>
      </trkpt>
      <trkpt lat="44.99947" lon="5.21175">
        <ele>949</ele>
        <time>2023-03-21T09:13:19Z</time>
      </trkpt>
      <trkpt lat="44.9994" lon="5.21192">
        <ele>951</ele>
        <time>2023-03-21T09:13:32Z</time>
      </trkpt>
      <trkpt lat="44.99936" lon="5.21198">
        <ele>953</ele>
        <time>2023-03-21T09:13:37Z</time>
      </trkpt>
      <trkpt lat="44.99926" lon="5.21225">
        <ele>957</ele>
        <time>2023-03-21T09:14:00Z</time>
      </trkpt>
      <trkpt lat="44.99926" lon="5.21233">
        <ele>957</ele>
        <time>2023-03-21T09:14:09Z</time>
      </trkpt>
      <trkpt lat="44.99929" lon="5.21252">
        <ele>957</ele>
        <time>2023-03-21T09:14:23Z</time>
      </trkpt>
      <trkpt lat="44.99929" lon="5.21262">
        <ele>958</ele>
        <time>2023-03-21T09:14:29Z</time>
      </trkpt>
      <trkpt lat="44.99923" lon="5.21279">
        <ele>959</ele>
        <time>2023-03-21T09:14:45Z</time>
      </trkpt>
      <trkpt lat="44.99924" lon="5.21287">
        <ele>959</ele>
        <time>2023-03-21T09:14:53Z</time>
      </trkpt>
      <trkpt lat="44.99928" lon="5.21297">
        <ele>962</ele>
        <time>2023-03-21T09:15:07Z</time>
      </trkpt>
      <trkpt lat="44.99931" lon="5.21306">
        <ele>965</ele>
        <time>2023-03-21T09:15:19Z</time>
      </trkpt>
      <trkpt lat="44.99929" lon="5.21316">
        <ele>969</ele>
        <time>2023-03-21T09:15:35Z</time>
      </trkpt>
      <trkpt lat="44.99937" lon="5.21331">
        <ele>971</ele>
        <time>2023-03-21T09:15:55Z</time>
      </trkpt>
      <trkpt lat="44.99936" lon="5.2134">
        <ele>972</ele>
        <time>2023-03-21T09:16:06Z</time>
      </trkpt>
      <trkpt lat="44.9994" lon="5.21348">
        <ele>972</ele>
        <time>2023-03-21T09:16:15Z</time>
      </trkpt>
      <trkpt lat="44.99938" lon="5.21357">
        <ele>975</ele>
        <time>2023-03-21T09:16:27Z</time>
      </trkpt>
      <trkpt lat="44.99941" lon="5.21366">
        <ele>976</ele>
        <time>2023-03-21T09:16:39Z</time>
      </trkpt>
      <trkpt lat="44.99942" lon="5.21376">
        <ele>981</ele>
        <time>2023-03-21T09:16:52Z</time>
      </trkpt>
      <trkpt lat="44.9994" lon="5.21385">
        <ele>985</ele>
        <time>2023-03-21T09:17:04Z</time>
      </trkpt>
      <trkpt lat="44.99941" lon="5.21393">
        <ele>988</ele>
        <time>2023-03-21T09:17:20Z</time>
      </trkpt>
      <trkpt lat="44.99943" lon="5.21402">
        <ele>994</ele>
        <time>2023-03-21T09:17:32Z</time>
      </trkpt>
      <trkpt lat="44.99946" lon="5.2141">
        <ele>997</ele>
        <time>2023-03-21T09:17:51Z</time>
      </trkpt>
      <trkpt lat="44.99947" lon="5.21431">
        <ele>1003</ele>
        <time>2023-03-21T09:18:19Z</time>
      </trkpt>
      <trkpt lat="44.99944" lon="5.21446">
        <ele>1006</ele>
        <time>2023-03-21T09:18:42Z</time>
      </trkpt>
      <trkpt lat="44.99946" lon="5.21464">
        <ele>1009</ele>
        <time>2023-03-21T09:19:06Z</time>
      </trkpt>
      <trkpt lat="44.99944" lon="5.21474">
        <ele>1011</ele>
        <time>2023-03-21T09:19:18Z</time>
      </trkpt>
      <trkpt lat="44.99946" lon="5.21482">
        <ele>1010</ele>
        <time>2023-03-21T09:19:26Z</time>
      </trkpt>
      <trkpt lat="44.99953" lon="5.21498">
        <ele>1013</ele>
        <time>2023-03-21T09:19:55Z</time>
      </trkpt>
      <trkpt lat="44.9996" lon="5.21503">
        <ele>1013</ele>
        <time>2023-03-21T09:20:04Z</time>
      </trkpt>
      <trkpt lat="44.9997" lon="5.21518">
        <ele>1013</ele>
        <time>2023-03-21T09:20:17Z</time>
      </trkpt>
      <trkpt lat="44.99976" lon="5.21525">
        <ele>1014</ele>
        <time>2023-03-21T09:20:24Z</time>
      </trkpt>
      <trkpt lat="44.99981" lon="5.21534">
        <ele>1014</ele>
        <time>2023-03-21T09:20:31Z</time>
      </trkpt>
      <trkpt lat="44.99987" lon="5.21542">
        <ele>1013</ele>
        <time>2023-03-21T09:20:38Z</time>
      </trkpt>
      <trkpt lat="44.99991" lon="5.2155">
        <ele>1013</ele>
        <time>2023-03-21T09:20:46Z</time>
      </trkpt>
      <trkpt lat="45.00004" lon="5.21562">
        <ele>1014</ele>
        <time>2023-03-21T09:21:11Z</time>
      </trkpt>
      <trkpt lat="45.0001" lon="5.21567">
        <ele>1015</ele>
        <time>2023-03-21T09:21:19Z</time>
      </trkpt>
      <trkpt lat="45.00013" lon="5.21576">
        <ele>1014</ele>
        <time>2023-03-21T09:21:26Z</time>
      </trkpt>
      <trkpt lat="45.00017" lon="5.21593">
        <ele>1017</ele>
        <time>2023-03-21T09:21:39Z</time>
      </trkpt>
      <trkpt lat="45.0002" lon="5.21602">
        <ele>1018</ele>
        <time>2023-03-21T09:21:49Z</time>
      </trkpt>
      <trkpt lat="45.00019" lon="5.21615">
        <ele>1019</ele>
        <time>2023-03-21T09:22:00Z</time>
      </trkpt>
      <trkpt lat="45.00018" lon="5.21625">
        <ele>1019</ele>
        <time>2023-03-21T09:22:06Z</time>
      </trkpt>
      <trkpt lat="45.00018" lon="5.21635">
        <ele>1020</ele>
        <time>2023-03-21T09:22:14Z</time>
      </trkpt>
      <trkpt lat="45.00014" lon="5.21667">
        <ele>1022</ele>
        <time>2023-03-21T09:22:38Z</time>
      </trkpt>
      <trkpt lat="45.0001" lon="5.21675">
        <ele>1022</ele>
        <time>2023-03-21T09:22:45Z</time>
      </trkpt>
      <trkpt lat="45.00009" lon="5.21684">
        <ele>1021</ele>
        <time>2023-03-21T09:22:55Z</time>
      </trkpt>
      <trkpt lat="45.00006" lon="5.21696">
        <ele>1021</ele>
        <time>2023-03-21T09:23:04Z</time>
      </trkpt>
      <trkpt lat="44.99997" lon="5.21717">
        <ele>1025</ele>
        <time>2023-03-21T09:23:26Z</time>
      </trkpt>
      <trkpt lat="45" lon="5.21736">
        <ele>1026</ele>
        <time>2023-03-21T09:23:47Z</time>
      </trkpt>
      <trkpt lat="45.00001" lon="5.21746">
        <ele>1025</ele>
        <time>2023-03-21T09:23:55Z</time>
      </trkpt>
      <trkpt lat="45.00003" lon="5.21756">
        <ele>1025</ele>
        <time>2023-03-21T09:24:04Z</time>
      </trkpt>
      <trkpt lat="45.00002" lon="5.21768">
        <ele>1026</ele>
        <time>2023-03-21T09:24:15Z</time>
      </trkpt>
      <trkpt lat="45" lon="5.21778">
        <ele>1027</ele>
        <time>2023-03-21T09:24:24Z</time>
      </trkpt>
      <trkpt lat="45.00001" lon="5.21789">
        <ele>1028</ele>
        <time>2023-03-21T09:24:32Z</time>
      </trkpt>
      <trkpt lat="45.00003" lon="5.218">
        <ele>1028</ele>
        <time>2023-03-21T09:24:40Z</time>
      </trkpt>
      <trkpt lat="45.00005" lon="5.21809">
        <ele>1028</ele>
        <time>2023-03-21T09:24:47Z</time>
      </trkpt>
      <trkpt lat="45.00003" lon="5.21829">
        <ele>1028</ele>
        <time>2023-03-21T09:25:04Z</time>
      </trkpt>
      <trkpt lat="45.00002" lon="5.2184">
        <ele>1031</ele>
        <time>2023-03-21T09:25:14Z</time>
      </trkpt>
      <trkpt lat="45.00007" lon="5.21849">
        <ele>1032</ele>
        <time>2023-03-21T09:25:22Z</time>
      </trkpt>
      <trkpt lat="45.00014" lon="5.21889">
        <ele>1030</ele>
        <time>2023-03-21T09:25:56Z</time>
      </trkpt>
      <trkpt lat="45.00016" lon="5.21899">
        <ele>1031</ele>
        <time>2023-03-21T09:26:05Z</time>
      </trkpt>
      <trkpt lat="45.00017" lon="5.21908">
        <ele>1033</ele>
        <time>2023-03-21T09:26:17Z</time>
      </trkpt>
      <trkpt lat="45.00017" lon="5.21918">
        <ele>1035</ele>
        <time>2023-03-21T09:26:25Z</time>
      </trkpt>
      <trkpt lat="45.00014" lon="5.21938">
        <ele>1036</ele>
        <time>2023-03-21T09:26:42Z</time>
      </trkpt>
      <trkpt lat="45.00013" lon="5.2195">
        <ele>1037</ele>
        <time>2023-03-21T09:26:53Z</time>
      </trkpt>
      <trkpt lat="45.00011" lon="5.21964">
        <ele>1040</ele>
        <time>2023-03-21T09:27:07Z</time>
      </trkpt>
      <trkpt lat="45.00008" lon="5.21975">
        <ele>1040</ele>
        <time>2023-03-21T09:27:18Z</time>
      </trkpt>
      <trkpt lat="45.00001" lon="5.21983">
        <ele>1041</ele>
        <time>2023-03-21T09:27:27Z</time>
      </trkpt>
      <trkpt lat="44.99995" lon="5.21991">
        <ele>1042</ele>
        <time>2023-03-21T09:27:37Z</time>
      </trkpt>
      <trkpt lat="44.99987" lon="5.22">
        <ele>1045</ele>
        <time>2023-03-21T09:27:51Z</time>
      </trkpt>
      <trkpt lat="44.99982" lon="5.22012">
        <ele>1047</ele>
        <time>2023-03-21T09:28:05Z</time>
      </trkpt>
      <trkpt lat="44.99975" lon="5.22023">
        <ele>1047</ele>
        <time>2023-03-21T09:28:22Z</time>
      </trkpt>
      <trkpt lat="44.99964" lon="5.22033">
        <ele>1048</ele>
        <time>2023-03-21T09:28:43Z</time>
      </trkpt>
      <trkpt lat="44.99955" lon="5.22042">
        <ele>1051</ele>
        <time>2023-03-21T09:28:56Z</time>
      </trkpt>
      <trkpt lat="44.99948" lon="5.22053">
        <ele>1053</ele>
        <time>2023-03-21T09:29:08Z</time>
      </trkpt>
      <trkpt lat="44.99939" lon="5.22053">
        <ele>1056</ele>
        <time>2023-03-21T09:29:21Z</time>
      </trkpt>
      <trkpt lat="44.99929" lon="5.22054">
        <ele>1058</ele>
        <time>2023-03-21T09:29:35Z</time>
      </trkpt>
      <trkpt lat="44.99917" lon="5.22057">
        <ele>1062</ele>
        <time>2023-03-21T09:29:54Z</time>
      </trkpt>
      <trkpt lat="44.99907" lon="5.22053">
        <ele>1063</ele>
        <time>2023-03-21T09:30:07Z</time>
      </trkpt>
      <trkpt lat="44.99886" lon="5.22051">
        <ele>1063</ele>
        <time>2023-03-21T09:30:29Z</time>
      </trkpt>
      <trkpt lat="44.99875" lon="5.22052">
        <ele>1066</ele>
        <time>2023-03-21T09:30:43Z</time>
      </trkpt>
      <trkpt lat="44.99866" lon="5.22055">
        <ele>1069</ele>
        <time>2023-03-21T09:31:05Z</time>
      </trkpt>
      <trkpt lat="44.99856" lon="5.22059">
        <ele>1073</ele>
        <time>2023-03-21T09:31:19Z</time>
      </trkpt>
      <trkpt lat="44.99845" lon="5.2206">
        <ele>1076</ele>
        <time>2023-03-21T09:31:38Z</time>
      </trkpt>
      <trkpt lat="44.99837" lon="5.22061">
        <ele>1080</ele>
        <time>2023-03-21T09:31:56Z</time>
      </trkpt>
      <trkpt lat="44.9983" lon="5.22064">
        <ele>1080</ele>
        <time>2023-03-21T09:32:09Z</time>
      </trkpt>
      <trkpt lat="44.99822" lon="5.22065">
        <ele>1081</ele>
        <time>2023-03-21T09:32:19Z</time>
      </trkpt>
      <trkpt lat="44.99814" lon="5.22068">
        <ele>1081</ele>
        <time>2023-03-21T09:32:33Z</time>
      </trkpt>
      <trkpt lat="44.99806" lon="5.2207">
        <ele>1083</ele>
        <time>2023-03-21T09:32:42Z</time>
      </trkpt>
      <trkpt lat="44.998" lon="5.22073">
        <ele>1086</ele>
        <time>2023-03-21T09:32:53Z</time>
      </trkpt>
      <trkpt lat="44.99802" lon="5.2208">
        <ele>1085</ele>
        <time>2023-03-21T09:33:11Z</time>
      </trkpt>
      <trkpt lat="44.99806" lon="5.22085">
        <ele>1088</ele>
        <time>2023-03-21T09:33:21Z</time>
      </trkpt>
      <trkpt lat="44.99808" lon="5.22094">
        <ele>1089</ele>
        <time>2023-03-21T09:33:40Z</time>
      </trkpt>
      <trkpt lat="44.99808" lon="5.221">
        <ele>1091</ele>
        <time>2023-03-21T09:33:49Z</time>
      </trkpt>
      <trkpt lat="44.99803" lon="5.22104">
        <ele>1090</ele>
        <time>2023-03-21T09:34:11Z</time>
      </trkpt>
      <trkpt lat="44.99805" lon="5.22109">
        <ele>1089</ele>
        <time>2023-03-21T09:35:50Z</time>
      </trkpt>
      <trkpt lat="44.99811" lon="5.22114">
        <ele>1091</ele>
        <time>2023-03-21T09:36:01Z</time>
      </trkpt>
      <trkpt lat="44.99837" lon="5.2213">
        <ele>1098</ele>
        <time>2023-03-21T09:36:35Z</time>
      </trkpt>
      <trkpt lat="44.99848" lon="5.22137">
        <ele>1103</ele>
        <time>2023-03-21T09:36:50Z</time>
      </trkpt>
      <trkpt lat="44.99856" lon="5.22141">
        <ele>1105</ele>
        <time>2023-03-21T09:37:09Z</time>
      </trkpt>
      <trkpt lat="44.99862" lon="5.22144">
        <ele>1106</ele>
        <time>2023-03-21T09:37:15Z</time>
      </trkpt>
      <trkpt lat="44.99886" lon="5.22167">
        <ele>1108</ele>
        <time>2023-03-21T09:37:56Z</time>
      </trkpt>
      <trkpt lat="44.999" lon="5.22178">
        <ele>1109</ele>
        <time>2023-03-21T09:38:15Z</time>
      </trkpt>
      <trkpt lat="44.99914" lon="5.2218">
        <ele>1112</ele>
        <time>2023-03-21T09:38:34Z</time>
      </trkpt>
      <trkpt lat="44.99919" lon="5.22186">
        <ele>1114</ele>
        <time>2023-03-21T09:38:47Z</time>
      </trkpt>
      <trkpt lat="44.99925" lon="5.22189">
        <ele>1115</ele>
        <time>2023-03-21T09:38:54Z</time>
      </trkpt>
      <trkpt lat="44.99943" lon="5.22203">
        <ele>1123</ele>
        <time>2023-03-21T09:39:23Z</time>
      </trkpt>
      <trkpt lat="44.99949" lon="5.22204">
        <ele>1122</ele>
        <time>2023-03-21T09:39:38Z</time>
      </trkpt>
      <trkpt lat="44.99956" lon="5.22206">
        <ele>1122</ele>
        <time>2023-03-21T09:39:46Z</time>
      </trkpt>
      <trkpt lat="44.99962" lon="5.2221">
        <ele>1124</ele>
        <time>2023-03-21T09:39:58Z</time>
      </trkpt>
      <trkpt lat="44.99966" lon="5.22217">
        <ele>1126</ele>
        <time>2023-03-21T09:40:08Z</time>
      </trkpt>
      <trkpt lat="44.99973" lon="5.2222">
        <ele>1127</ele>
        <time>2023-03-21T09:40:17Z</time>
      </trkpt>
      <trkpt lat="44.9998" lon="5.2222">
        <ele>1132</ele>
        <time>2023-03-21T09:40:28Z</time>
      </trkpt>
      <trkpt lat="44.99987" lon="5.22216">
        <ele>1131</ele>
        <time>2023-03-21T09:40:39Z</time>
      </trkpt>
      <trkpt lat="44.99999" lon="5.22221">
        <ele>1132</ele>
        <time>2023-03-21T09:40:56Z</time>
      </trkpt>
      <trkpt lat="45.00007" lon="5.22222">
        <ele>1129</ele>
        <time>2023-03-21T09:41:04Z</time>
      </trkpt>
      <trkpt lat="45.00013" lon="5.22219">
        <ele>1128</ele>
        <time>2023-03-21T09:41:10Z</time>
      </trkpt>
      <trkpt lat="45.00024" lon="5.22224">
        <ele>1131</ele>
        <time>2023-03-21T09:41:30Z</time>
      </trkpt>
      <trkpt lat="45.00036" lon="5.22225">
        <ele>1132</ele>
        <time>2023-03-21T09:41:48Z</time>
      </trkpt>
      <trkpt lat="45.00042" lon="5.22222">
        <ele>1134</ele>
        <time>2023-03-21T09:42:01Z</time>
      </trkpt>
      <trkpt lat="45.00047" lon="5.22216">
        <ele>1134</ele>
        <time>2023-03-21T09:42:11Z</time>
      </trkpt>
      <trkpt lat="45.00058" lon="5.22209">
        <ele>1138</ele>
        <time>2023-03-21T09:42:32Z</time>
      </trkpt>
      <trkpt lat="45.00063" lon="5.22195">
        <ele>1140</ele>
        <time>2023-03-21T09:42:43Z</time>
      </trkpt>
      <trkpt lat="45.00067" lon="5.22189">
        <ele>1141</ele>
        <time>2023-03-21T09:42:49Z</time>
      </trkpt>
      <trkpt lat="45.00073" lon="5.22187">
        <ele>1141</ele>
        <time>2023-03-21T09:42:58Z</time>
      </trkpt>
      <trkpt lat="45.00078" lon="5.22179">
        <ele>1139</ele>
        <time>2023-03-21T09:43:09Z</time>
      </trkpt>
      <trkpt lat="45.0009" lon="5.22179">
        <ele>1141</ele>
        <time>2023-03-21T09:43:24Z</time>
      </trkpt>
      <trkpt lat="45.00095" lon="5.22173">
        <ele>1142</ele>
        <time>2023-03-21T09:43:29Z</time>
      </trkpt>
      <trkpt lat="45.00105" lon="5.22166">
        <ele>1146</ele>
        <time>2023-03-21T09:43:43Z</time>
      </trkpt>
      <trkpt lat="45.00116" lon="5.22158">
        <ele>1148</ele>
        <time>2023-03-21T09:43:57Z</time>
      </trkpt>
      <trkpt lat="45.00125" lon="5.22156">
        <ele>1147</ele>
        <time>2023-03-21T09:44:05Z</time>
      </trkpt>
      <trkpt lat="45.0013" lon="5.22157">
        <ele>1146</ele>
        <time>2023-03-21T09:44:09Z</time>
      </trkpt>
      <trkpt lat="45.00133" lon="5.22157">
        <ele>1146</ele>
        <time>2023-03-21T09:44:14Z</time>
      </trkpt>
      <trkpt lat="45.00138" lon="5.2216">
        <ele>1144</ele>
        <time>2023-03-21T09:44:18Z</time>
      </trkpt>
      <trkpt lat="45.00141" lon="5.22162">
        <ele>1142</ele>
        <time>2023-03-21T09:44:22Z</time>
      </trkpt>
      <trkpt lat="45.00144" lon="5.22165">
        <ele>1141</ele>
        <time>2023-03-21T09:44:37Z</time>
      </trkpt>
      <trkpt lat="45.00143" lon="5.22171">
        <ele>1141</ele>
        <time>2023-03-21T09:45:01Z</time>
      </trkpt>
      <trkpt lat="45.00147" lon="5.22175">
        <ele>1141</ele>
        <time>2023-03-21T09:46:46Z</time>
      </trkpt>
      <trkpt lat="45.00139" lon="5.22206">
        <ele>1140</ele>
        <time>2023-03-21T09:47:14Z</time>
      </trkpt>
      <trkpt lat="45.00139" lon="5.22212">
        <ele>1140</ele>
        <time>2023-03-21T09:47:20Z</time>
      </trkpt>
      <trkpt lat="45.00142" lon="5.22228">
        <ele>1141</ele>
        <time>2023-03-21T09:47:36Z</time>
      </trkpt>
      <trkpt lat="45.00142" lon="5.22236">
        <ele>1143</ele>
        <time>2023-03-21T09:47:44Z</time>
      </trkpt>
      <trkpt lat="45.00132" lon="5.22267">
        <ele>1148</ele>
        <time>2023-03-21T09:48:18Z</time>
      </trkpt>
      <trkpt lat="45.00125" lon="5.22297">
        <ele>1152</ele>
        <time>2023-03-21T09:48:50Z</time>
      </trkpt>
      <trkpt lat="45.00121" lon="5.22318">
        <ele>1155</ele>
        <time>2023-03-21T09:49:14Z</time>
      </trkpt>
      <trkpt lat="45.0011" lon="5.22342">
        <ele>1158</ele>
        <time>2023-03-21T09:49:48Z</time>
      </trkpt>
      <trkpt lat="45.00099" lon="5.22364">
        <ele>1163</ele>
        <time>2023-03-21T09:50:22Z</time>
      </trkpt>
      <trkpt lat="45.00096" lon="5.22374">
        <ele>1165</ele>
        <time>2023-03-21T09:50:36Z</time>
      </trkpt>
      <trkpt lat="45.00093" lon="5.22379">
        <ele>1167</ele>
        <time>2023-03-21T09:50:45Z</time>
      </trkpt>
      <trkpt lat="45.0009" lon="5.22383">
        <ele>1168</ele>
        <time>2023-03-21T09:50:54Z</time>
      </trkpt>
      <trkpt lat="45.00088" lon="5.22388">
        <ele>1170</ele>
        <time>2023-03-21T09:51:04Z</time>
      </trkpt>
      <trkpt lat="45.00084" lon="5.22393">
        <ele>1172</ele>
        <time>2023-03-21T09:51:13Z</time>
      </trkpt>
      <trkpt lat="45.00081" lon="5.22398">
        <ele>1173</ele>
        <time>2023-03-21T09:51:21Z</time>
      </trkpt>
      <trkpt lat="45.00075" lon="5.22408">
        <ele>1176</ele>
        <time>2023-03-21T09:51:43Z</time>
      </trkpt>
      <trkpt lat="45.0007" lon="5.22419">
        <ele>1178</ele>
        <time>2023-03-21T09:52:00Z</time>
      </trkpt>
      <trkpt lat="45.00068" lon="5.22423">
        <ele>1179</ele>
        <time>2023-03-21T09:52:09Z</time>
      </trkpt>
      <trkpt lat="45.00066" lon="5.22427">
        <ele>1179</ele>
        <time>2023-03-21T09:52:16Z</time>
      </trkpt>
      <trkpt lat="45.0006" lon="5.22435">
        <ele>1180</ele>
        <time>2023-03-21T09:52:34Z</time>
      </trkpt>
      <trkpt lat="45.00057" lon="5.22439">
        <ele>1182</ele>
        <time>2023-03-21T09:52:45Z</time>
      </trkpt>
      <trkpt lat="45.00054" lon="5.22442">
        <ele>1184</ele>
        <time>2023-03-21T09:52:54Z</time>
      </trkpt>
      <trkpt lat="45.00047" lon="5.22449">
        <ele>1188</ele>
        <time>2023-03-21T09:53:11Z</time>
      </trkpt>
      <trkpt lat="45.00044" lon="5.22454">
        <ele>1191</ele>
        <time>2023-03-21T09:53:20Z</time>
      </trkpt>
      <trkpt lat="45.00038" lon="5.22465">
        <ele>1192</ele>
        <time>2023-03-21T09:53:46Z</time>
      </trkpt>
      <trkpt lat="45.0003" lon="5.22477">
        <ele>1199</ele>
        <time>2023-03-21T09:54:16Z</time>
      </trkpt>
      <trkpt lat="45.00026" lon="5.22486">
        <ele>1201</ele>
        <time>2023-03-21T09:54:30Z</time>
      </trkpt>
      <trkpt lat="45.00022" lon="5.22495">
        <ele>1203</ele>
        <time>2023-03-21T09:54:48Z</time>
      </trkpt>
      <trkpt lat="45.00018" lon="5.22499">
        <ele>1205</ele>
        <time>2023-03-21T09:54:59Z</time>
      </trkpt>
      <trkpt lat="45.00012" lon="5.22508">
        <ele>1209</ele>
        <time>2023-03-21T09:55:20Z</time>
      </trkpt>
      <trkpt lat="45.0001" lon="5.22512">
        <ele>1211</ele>
        <time>2023-03-21T09:55:32Z</time>
      </trkpt>
      <trkpt lat="45.00006" lon="5.22515">
        <ele>1212</ele>
        <time>2023-03-21T09:55:37Z</time>
      </trkpt>
      <trkpt lat="45.00004" lon="5.22519">
        <ele>1213</ele>
        <time>2023-03-21T09:55:47Z</time>
      </trkpt>
      <trkpt lat="45.00002" lon="5.22524">
        <ele>1215</ele>
        <time>2023-03-21T09:55:57Z</time>
      </trkpt>
      <trkpt lat="44.99999" lon="5.22527">
        <ele>1216</ele>
        <time>2023-03-21T09:56:06Z</time>
      </trkpt>
      <trkpt lat="44.99997" lon="5.22533">
        <ele>1220</ele>
        <time>2023-03-21T09:56:19Z</time>
      </trkpt>
      <trkpt lat="44.99995" lon="5.22537">
        <ele>1221</ele>
        <time>2023-03-21T09:56:31Z</time>
      </trkpt>
      <trkpt lat="44.99994" lon="5.22544">
        <ele>1224</ele>
        <time>2023-03-21T09:56:44Z</time>
      </trkpt>
      <trkpt lat="44.99992" lon="5.22551">
        <ele>1226</ele>
        <time>2023-03-21T09:56:57Z</time>
      </trkpt>
      <trkpt lat="44.9999" lon="5.22557">
        <ele>1229</ele>
        <time>2023-03-21T09:57:12Z</time>
      </trkpt>
      <trkpt lat="44.99987" lon="5.22568">
        <ele>1231</ele>
        <time>2023-03-21T09:57:45Z</time>
      </trkpt>
      <trkpt lat="44.99983" lon="5.22573">
        <ele>1234</ele>
        <time>2023-03-21T09:57:59Z</time>
      </trkpt>
      <trkpt lat="44.99982" lon="5.22579">
        <ele>1243</ele>
        <time>2023-03-21T10:01:39Z</time>
      </trkpt>
      <trkpt lat="44.99984" lon="5.22586">
        <ele>1245</ele>
        <time>2023-03-21T10:03:05Z</time>
      </trkpt>
      <trkpt lat="44.99988" lon="5.226">
        <ele>1253</ele>
        <time>2023-03-21T10:03:51Z</time>
      </trkpt>
      <trkpt lat="44.99989" lon="5.22606">
        <ele>1255</ele>
        <time>2023-03-21T10:03:57Z</time>
      </trkpt>
      <trkpt lat="44.99991" lon="5.2261">
        <ele>1256</ele>
        <time>2023-03-21T10:04:06Z</time>
      </trkpt>
      <trkpt lat="44.9999" lon="5.22611">
        <ele>1258</ele>
        <time>2023-03-21T10:05:28Z</time>
      </trkpt>
      <trkpt lat="44.99993" lon="5.22616">
        <ele>1262</ele>
        <time>2023-03-21T10:05:48Z</time>
      </trkpt>
      <trkpt lat="44.99996" lon="5.22621">
        <ele>1265</ele>
        <time>2023-03-21T10:06:01Z</time>
      </trkpt>
      <trkpt lat="44.99996" lon="5.22627">
        <ele>1266</ele>
        <time>2023-03-21T10:06:10Z</time>
      </trkpt>
      <trkpt lat="44.99999" lon="5.22632">
        <ele>1267</ele>
        <time>2023-03-21T10:06:18Z</time>
      </trkpt>
      <trkpt lat="45.00003" lon="5.22637">
        <ele>1268</ele>
        <time>2023-03-21T10:06:32Z</time>
      </trkpt>
      <trkpt lat="45.00005" lon="5.22648">
        <ele>1270</ele>
        <time>2023-03-21T10:06:44Z</time>
      </trkpt>
      <trkpt lat="45.00009" lon="5.22656">
        <ele>1273</ele>
        <time>2023-03-21T10:07:01Z</time>
      </trkpt>
      <trkpt lat="45.00007" lon="5.22666">
        <ele>1276</ele>
        <time>2023-03-21T10:07:22Z</time>
      </trkpt>
      <trkpt lat="45.00004" lon="5.22673">
        <ele>1276</ele>
        <time>2023-03-21T10:07:31Z</time>
      </trkpt>
      <trkpt lat="44.99998" lon="5.22678">
        <ele>1276</ele>
        <time>2023-03-21T10:07:46Z</time>
      </trkpt>
      <trkpt lat="44.99996" lon="5.22684">
        <ele>1276</ele>
        <time>2023-03-21T10:08:01Z</time>
      </trkpt>
      <trkpt lat="44.99992" lon="5.22687">
        <ele>1279</ele>
        <time>2023-03-21T10:08:14Z</time>
      </trkpt>
      <trkpt lat="44.99987" lon="5.22687">
        <ele>1280</ele>
        <time>2023-03-21T10:08:22Z</time>
      </trkpt>
      <trkpt lat="44.9998" lon="5.22677">
        <ele>1281</ele>
        <time>2023-03-21T10:08:35Z</time>
      </trkpt>
      <trkpt lat="44.99976" lon="5.22676">
        <ele>1281</ele>
        <time>2023-03-21T10:09:19Z</time>
      </trkpt>
      <trkpt lat="44.99972" lon="5.22675">
        <ele>1282</ele>
        <time>2023-03-21T10:09:23Z</time>
      </trkpt>
      <trkpt lat="44.99968" lon="5.22673">
        <ele>1281</ele>
        <time>2023-03-21T10:09:27Z</time>
      </trkpt>
      <trkpt lat="44.99964" lon="5.22672">
        <ele>1281</ele>
        <time>2023-03-21T10:09:32Z</time>
      </trkpt>
      <trkpt lat="44.99961" lon="5.22674">
        <ele>1282</ele>
        <time>2023-03-21T10:09:37Z</time>
      </trkpt>
      <trkpt lat="44.99952" lon="5.22674">
        <ele>1283</ele>
        <time>2023-03-21T10:09:46Z</time>
      </trkpt>
      <trkpt lat="44.99944" lon="5.22671">
        <ele>1284</ele>
        <time>2023-03-21T10:09:54Z</time>
      </trkpt>
      <trkpt lat="44.99937" lon="5.22672">
        <ele>1285</ele>
        <time>2023-03-21T10:10:05Z</time>
      </trkpt>
      <trkpt lat="44.99934" lon="5.22669">
        <ele>1286</ele>
        <time>2023-03-21T10:10:09Z</time>
      </trkpt>
      <trkpt lat="44.99925" lon="5.22666">
        <ele>1287</ele>
        <time>2023-03-21T10:10:20Z</time>
      </trkpt>
      <trkpt lat="44.99922" lon="5.22665">
        <ele>1287</ele>
        <time>2023-03-21T10:10:23Z</time>
      </trkpt>
      <trkpt lat="44.99915" lon="5.22659">
        <ele>1288</ele>
        <time>2023-03-21T10:10:36Z</time>
      </trkpt>
      <trkpt lat="44.99912" lon="5.22659">
        <ele>1288</ele>
        <time>2023-03-21T10:10:39Z</time>
      </trkpt>
      <trkpt lat="44.99909" lon="5.22656">
        <ele>1289</ele>
        <time>2023-03-21T10:10:44Z</time>
      </trkpt>
      <trkpt lat="44.99902" lon="5.22652">
        <ele>1288</ele>
        <time>2023-03-21T10:10:59Z</time>
      </trkpt>
      <trkpt lat="44.99899" lon="5.22652">
        <ele>1288</ele>
        <time>2023-03-21T10:11:04Z</time>
      </trkpt>
      <trkpt lat="44.99898" lon="5.22648">
        <ele>1288</ele>
        <time>2023-03-21T10:11:14Z</time>
      </trkpt>
      <trkpt lat="44.99896" lon="5.22649">
        <ele>1288</ele>
        <time>2023-03-21T10:14:05Z</time>
      </trkpt>
      <trkpt lat="44.99894" lon="5.22648">
        <ele>1288</ele>
        <time>2023-03-21T10:14:12Z</time>
      </trkpt>
      <trkpt lat="44.99891" lon="5.22652">
        <ele>1287</ele>
        <time>2023-03-21T10:14:19Z</time>
      </trkpt>
      <trkpt lat="44.99888" lon="5.22655">
        <ele>1287</ele>
        <time>2023-03-21T10:14:23Z</time>
      </trkpt>
      <trkpt lat="44.99885" lon="5.22657">
        <ele>1288</ele>
        <time>2023-03-21T10:14:27Z</time>
      </trkpt>
      <trkpt lat="44.99882" lon="5.22657">
        <ele>1288</ele>
        <time>2023-03-21T10:14:31Z</time>
      </trkpt>
      <trkpt lat="44.99882" lon="5.22653">
        <ele>1287</ele>
        <time>2023-03-21T10:14:37Z</time>
      </trkpt>
      <trkpt lat="44.99881" lon="5.22654">
        <ele>1288</ele>
        <time>2023-03-21T11:04:00Z</time>
      </trkpt>
      <trkpt lat="44.99885" lon="5.22652">
        <ele>1288</ele>
        <time>2023-03-21T11:05:49Z</time>
      </trkpt>
      <trkpt lat="44.99888" lon="5.22652">
        <ele>1288</ele>
        <time>2023-03-21T11:05:54Z</time>
      </trkpt>
      <trkpt lat="44.9989" lon="5.22649">
        <ele>1288</ele>
        <time>2023-03-21T11:05:59Z</time>
      </trkpt>
      <trkpt lat="44.99893" lon="5.22645">
        <ele>1288</ele>
        <time>2023-03-21T11:06:05Z</time>
      </trkpt>
      <trkpt lat="44.99897" lon="5.22647">
        <ele>1288</ele>
        <time>2023-03-21T11:06:13Z</time>
      </trkpt>
      <trkpt lat="44.99908" lon="5.22644">
        <ele>1288</ele>
        <time>2023-03-21T11:06:47Z</time>
      </trkpt>
      <trkpt lat="44.99911" lon="5.22649">
        <ele>1288</ele>
        <time>2023-03-21T11:06:54Z</time>
      </trkpt>
      <trkpt lat="44.99922" lon="5.2266">
        <ele>1288</ele>
        <time>2023-03-21T11:07:14Z</time>
      </trkpt>
      <trkpt lat="44.99927" lon="5.22665">
        <ele>1289</ele>
        <time>2023-03-21T11:07:22Z</time>
      </trkpt>
      <trkpt lat="44.99933" lon="5.22664">
        <ele>1289</ele>
        <time>2023-03-21T11:07:28Z</time>
      </trkpt>
      <trkpt lat="44.99957" lon="5.22663">
        <ele>1288</ele>
        <time>2023-03-21T11:08:00Z</time>
      </trkpt>
      <trkpt lat="44.99969" lon="5.22663">
        <ele>1288</ele>
        <time>2023-03-21T11:08:11Z</time>
      </trkpt>
      <trkpt lat="44.99986" lon="5.22665">
        <ele>1287</ele>
        <time>2023-03-21T11:08:26Z</time>
      </trkpt>
      <trkpt lat="44.9999" lon="5.22667">
        <ele>1287</ele>
        <time>2023-03-21T11:08:30Z</time>
      </trkpt>
      <trkpt lat="44.99993" lon="5.22673">
        <ele>1286</ele>
        <time>2023-03-21T11:08:35Z</time>
      </trkpt>
      <trkpt lat="44.99995" lon="5.2268">
        <ele>1284</ele>
        <time>2023-03-21T11:08:40Z</time>
      </trkpt>
      <trkpt lat="44.99993" lon="5.22687">
        <ele>1282</ele>
        <time>2023-03-21T11:08:47Z</time>
      </trkpt>
      <trkpt lat="44.99997" lon="5.22701">
        <ele>1279</ele>
        <time>2023-03-21T11:09:00Z</time>
      </trkpt>
      <trkpt lat="44.99999" lon="5.22708">
        <ele>1279</ele>
        <time>2023-03-21T11:09:06Z</time>
      </trkpt>
      <trkpt lat="45.00004" lon="5.22714">
        <ele>1277</ele>
        <time>2023-03-21T11:09:12Z</time>
      </trkpt>
      <trkpt lat="45.00008" lon="5.22717">
        <ele>1276</ele>
        <time>2023-03-21T11:09:19Z</time>
      </trkpt>
      <trkpt lat="45.00014" lon="5.22732">
        <ele>1274</ele>
        <time>2023-03-21T11:09:39Z</time>
      </trkpt>
      <trkpt lat="45.00015" lon="5.22739">
        <ele>1271</ele>
        <time>2023-03-21T11:09:45Z</time>
      </trkpt>
      <trkpt lat="45.00015" lon="5.22758">
        <ele>1270</ele>
        <time>2023-03-21T11:10:07Z</time>
      </trkpt>
      <trkpt lat="45.00018" lon="5.22766">
        <ele>1269</ele>
        <time>2023-03-21T11:10:15Z</time>
      </trkpt>
      <trkpt lat="45.00016" lon="5.22774">
        <ele>1266</ele>
        <time>2023-03-21T11:10:24Z</time>
      </trkpt>
      <trkpt lat="45.0002" lon="5.22781">
        <ele>1265</ele>
        <time>2023-03-21T11:10:34Z</time>
      </trkpt>
      <trkpt lat="45.00024" lon="5.22786">
        <ele>1263</ele>
        <time>2023-03-21T11:10:41Z</time>
      </trkpt>
      <trkpt lat="45.00026" lon="5.22791">
        <ele>1262</ele>
        <time>2023-03-21T11:10:48Z</time>
      </trkpt>
      <trkpt lat="45.00026" lon="5.22798">
        <ele>1259</ele>
        <time>2023-03-21T11:10:56Z</time>
      </trkpt>
      <trkpt lat="45.00022" lon="5.22803">
        <ele>1257</ele>
        <time>2023-03-21T11:11:03Z</time>
      </trkpt>
      <trkpt lat="45.00018" lon="5.22808">
        <ele>1254</ele>
        <time>2023-03-21T11:11:07Z</time>
      </trkpt>
      <trkpt lat="45.00008" lon="5.22816">
        <ele>1252</ele>
        <time>2023-03-21T11:11:14Z</time>
      </trkpt>
      <trkpt lat="45.00005" lon="5.22821">
        <ele>1250</ele>
        <time>2023-03-21T11:11:18Z</time>
      </trkpt>
      <trkpt lat="44.99997" lon="5.22826">
        <ele>1250</ele>
        <time>2023-03-21T11:11:27Z</time>
      </trkpt>
      <trkpt lat="44.99993" lon="5.22828">
        <ele>1250</ele>
        <time>2023-03-21T11:11:31Z</time>
      </trkpt>
      <trkpt lat="44.99989" lon="5.22831">
        <ele>1249</ele>
        <time>2023-03-21T11:11:36Z</time>
      </trkpt>
      <trkpt lat="44.99977" lon="5.22834">
        <ele>1249</ele>
        <time>2023-03-21T11:11:48Z</time>
      </trkpt>
      <trkpt lat="44.99972" lon="5.22834">
        <ele>1250</ele>
        <time>2023-03-21T11:11:52Z</time>
      </trkpt>
      <trkpt lat="44.99967" lon="5.22833">
        <ele>1250</ele>
        <time>2023-03-21T11:11:59Z</time>
      </trkpt>
      <trkpt lat="44.99966" lon="5.22842">
        <ele>1250</ele>
        <time>2023-03-21T11:12:10Z</time>
      </trkpt>
      <trkpt lat="44.99968" lon="5.22857">
        <ele>1246</ele>
        <time>2023-03-21T11:12:27Z</time>
      </trkpt>
      <trkpt lat="44.99969" lon="5.22866">
        <ele>1243</ele>
        <time>2023-03-21T11:12:33Z</time>
      </trkpt>
      <trkpt lat="44.99971" lon="5.22875">
        <ele>1242</ele>
        <time>2023-03-21T11:12:43Z</time>
      </trkpt>
      <trkpt lat="44.99971" lon="5.22882">
        <ele>1241</ele>
        <time>2023-03-21T11:12:56Z</time>
      </trkpt>
      <trkpt lat="44.99973" lon="5.22892">
        <ele>1240</ele>
        <time>2023-03-21T11:13:02Z</time>
      </trkpt>
      <trkpt lat="44.99976" lon="5.22901">
        <ele>1237</ele>
        <time>2023-03-21T11:13:10Z</time>
      </trkpt>
      <trkpt lat="44.99975" lon="5.22909">
        <ele>1236</ele>
        <time>2023-03-21T11:13:17Z</time>
      </trkpt>
      <trkpt lat="44.99973" lon="5.22917">
        <ele>1234</ele>
        <time>2023-03-21T11:13:23Z</time>
      </trkpt>
      <trkpt lat="44.99972" lon="5.22924">
        <ele>1231</ele>
        <time>2023-03-21T11:13:29Z</time>
      </trkpt>
      <trkpt lat="44.99959" lon="5.22957">
        <ele>1228</ele>
        <time>2023-03-21T11:14:00Z</time>
      </trkpt>
      <trkpt lat="44.99956" lon="5.22962">
        <ele>1226</ele>
        <time>2023-03-21T11:14:05Z</time>
      </trkpt>
      <trkpt lat="44.99953" lon="5.22968">
        <ele>1226</ele>
        <time>2023-03-21T11:14:10Z</time>
      </trkpt>
      <trkpt lat="44.99954" lon="5.22977">
        <ele>1224</ele>
        <time>2023-03-21T11:14:17Z</time>
      </trkpt>
      <trkpt lat="44.9995" lon="5.22982">
        <ele>1223</ele>
        <time>2023-03-21T11:14:22Z</time>
      </trkpt>
      <trkpt lat="44.99949" lon="5.22989">
        <ele>1222</ele>
        <time>2023-03-21T11:14:29Z</time>
      </trkpt>
      <trkpt lat="44.99946" lon="5.22997">
        <ele>1220</ele>
        <time>2023-03-21T11:14:35Z</time>
      </trkpt>
      <trkpt lat="44.99942" lon="5.23002">
        <ele>1219</ele>
        <time>2023-03-21T11:14:39Z</time>
      </trkpt>
      <trkpt lat="44.99938" lon="5.23007">
        <ele>1218</ele>
        <time>2023-03-21T11:14:44Z</time>
      </trkpt>
      <trkpt lat="44.99933" lon="5.2301">
        <ele>1217</ele>
        <time>2023-03-21T11:14:48Z</time>
      </trkpt>
      <trkpt lat="44.99927" lon="5.23016">
        <ele>1216</ele>
        <time>2023-03-21T11:14:56Z</time>
      </trkpt>
      <trkpt lat="44.99924" lon="5.23023">
        <ele>1214</ele>
        <time>2023-03-21T11:15:02Z</time>
      </trkpt>
      <trkpt lat="44.99908" lon="5.23036">
        <ele>1209</ele>
        <time>2023-03-21T11:15:17Z</time>
      </trkpt>
      <trkpt lat="44.99903" lon="5.2304">
        <ele>1206</ele>
        <time>2023-03-21T11:15:23Z</time>
      </trkpt>
      <trkpt lat="44.99891" lon="5.23046">
        <ele>1204</ele>
        <time>2023-03-21T11:15:35Z</time>
      </trkpt>
      <trkpt lat="44.99885" lon="5.2305">
        <ele>1203</ele>
        <time>2023-03-21T11:15:42Z</time>
      </trkpt>
      <trkpt lat="44.99879" lon="5.23054">
        <ele>1202</ele>
        <time>2023-03-21T11:15:48Z</time>
      </trkpt>
      <trkpt lat="44.99874" lon="5.2306">
        <ele>1202</ele>
        <time>2023-03-21T11:15:54Z</time>
      </trkpt>
      <trkpt lat="44.99869" lon="5.23064">
        <ele>1201</ele>
        <time>2023-03-21T11:15:59Z</time>
      </trkpt>
      <trkpt lat="44.99861" lon="5.23064">
        <ele>1203</ele>
        <time>2023-03-21T11:16:05Z</time>
      </trkpt>
      <trkpt lat="44.99849" lon="5.23066">
        <ele>1202</ele>
        <time>2023-03-21T11:16:16Z</time>
      </trkpt>
      <trkpt lat="44.99844" lon="5.2307">
        <ele>1201</ele>
        <time>2023-03-21T11:16:23Z</time>
      </trkpt>
      <trkpt lat="44.99843" lon="5.23078">
        <ele>1200</ele>
        <time>2023-03-21T11:16:44Z</time>
      </trkpt>
      <trkpt lat="44.99839" lon="5.23086">
        <ele>1197</ele>
        <time>2023-03-21T11:16:57Z</time>
      </trkpt>
      <trkpt lat="44.99834" lon="5.23093">
        <ele>1195</ele>
        <time>2023-03-21T11:17:05Z</time>
      </trkpt>
      <trkpt lat="44.99829" lon="5.231">
        <ele>1192</ele>
        <time>2023-03-21T11:17:13Z</time>
      </trkpt>
      <trkpt lat="44.99823" lon="5.23102">
        <ele>1192</ele>
        <time>2023-03-21T11:17:18Z</time>
      </trkpt>
      <trkpt lat="44.99817" lon="5.23106">
        <ele>1191</ele>
        <time>2023-03-21T11:17:27Z</time>
      </trkpt>
      <trkpt lat="44.99812" lon="5.23111">
        <ele>1190</ele>
        <time>2023-03-21T11:17:38Z</time>
      </trkpt>
      <trkpt lat="44.99808" lon="5.23118">
        <ele>1188</ele>
        <time>2023-03-21T11:17:45Z</time>
      </trkpt>
      <trkpt lat="44.99802" lon="5.23122">
        <ele>1187</ele>
        <time>2023-03-21T11:17:55Z</time>
      </trkpt>
      <trkpt lat="44.99796" lon="5.23128">
        <ele>1185</ele>
        <time>2023-03-21T11:18:05Z</time>
      </trkpt>
      <trkpt lat="44.99791" lon="5.23134">
        <ele>1185</ele>
        <time>2023-03-21T11:18:19Z</time>
      </trkpt>
      <trkpt lat="44.99795" lon="5.23141">
        <ele>1184</ele>
        <time>2023-03-21T11:18:40Z</time>
      </trkpt>
      <trkpt lat="44.998" lon="5.23148">
        <ele>1184</ele>
        <time>2023-03-21T11:18:52Z</time>
      </trkpt>
      <trkpt lat="44.99807" lon="5.23153">
        <ele>1183</ele>
        <time>2023-03-21T11:19:01Z</time>
      </trkpt>
      <trkpt lat="44.99814" lon="5.23157">
        <ele>1180</ele>
        <time>2023-03-21T11:19:07Z</time>
      </trkpt>
      <trkpt lat="44.99818" lon="5.23165">
        <ele>1179</ele>
        <time>2023-03-21T11:19:13Z</time>
      </trkpt>
      <trkpt lat="44.99821" lon="5.23174">
        <ele>1176</ele>
        <time>2023-03-21T11:19:20Z</time>
      </trkpt>
      <trkpt lat="44.99826" lon="5.23181">
        <ele>1173</ele>
        <time>2023-03-21T11:19:28Z</time>
      </trkpt>
      <trkpt lat="44.99825" lon="5.23189">
        <ele>1168</ele>
        <time>2023-03-21T11:19:41Z</time>
      </trkpt>
      <trkpt lat="44.99827" lon="5.23195">
        <ele>1163</ele>
        <time>2023-03-21T11:19:58Z</time>
      </trkpt>
      <trkpt lat="44.99831" lon="5.23202">
        <ele>1163</ele>
        <time>2023-03-21T11:20:06Z</time>
      </trkpt>
      <trkpt lat="44.99832" lon="5.2321">
        <ele>1162</ele>
        <time>2023-03-21T11:20:20Z</time>
      </trkpt>
      <trkpt lat="44.99843" lon="5.23219">
        <ele>1165</ele>
        <time>2023-03-21T11:20:33Z</time>
      </trkpt>
      <trkpt lat="44.9985" lon="5.23223">
        <ele>1164</ele>
        <time>2023-03-21T11:20:41Z</time>
      </trkpt>
      <trkpt lat="44.99856" lon="5.23226">
        <ele>1164</ele>
        <time>2023-03-21T11:20:48Z</time>
      </trkpt>
      <trkpt lat="44.99882" lon="5.23227">
        <ele>1162</ele>
        <time>2023-03-21T11:21:14Z</time>
      </trkpt>
      <trkpt lat="44.99888" lon="5.23232">
        <ele>1162</ele>
        <time>2023-03-21T11:21:20Z</time>
      </trkpt>
      <trkpt lat="44.999" lon="5.23234">
        <ele>1162</ele>
        <time>2023-03-21T11:21:33Z</time>
      </trkpt>
      <trkpt lat="44.99906" lon="5.23237">
        <ele>1162</ele>
        <time>2023-03-21T11:21:40Z</time>
      </trkpt>
      <trkpt lat="44.99911" lon="5.23239">
        <ele>1161</ele>
        <time>2023-03-21T11:21:46Z</time>
      </trkpt>
      <trkpt lat="44.99918" lon="5.23241">
        <ele>1161</ele>
        <time>2023-03-21T11:21:53Z</time>
      </trkpt>
      <trkpt lat="44.99922" lon="5.23247">
        <ele>1161</ele>
        <time>2023-03-21T11:21:57Z</time>
      </trkpt>
      <trkpt lat="44.99925" lon="5.23254">
        <ele>1159</ele>
        <time>2023-03-21T11:22:03Z</time>
      </trkpt>
      <trkpt lat="44.9993" lon="5.23262">
        <ele>1155</ele>
        <time>2023-03-21T11:22:13Z</time>
      </trkpt>
      <trkpt lat="44.99934" lon="5.23269">
        <ele>1154</ele>
        <time>2023-03-21T11:22:19Z</time>
      </trkpt>
      <trkpt lat="44.99938" lon="5.23273">
        <ele>1152</ele>
        <time>2023-03-21T11:22:24Z</time>
      </trkpt>
      <trkpt lat="44.99946" lon="5.23277">
        <ele>1151</ele>
        <time>2023-03-21T11:22:40Z</time>
      </trkpt>
      <trkpt lat="44.99968" lon="5.23298">
        <ele>1150</ele>
        <time>2023-03-21T11:23:09Z</time>
      </trkpt>
      <trkpt lat="44.99974" lon="5.23305">
        <ele>1149</ele>
        <time>2023-03-21T11:23:17Z</time>
      </trkpt>
      <trkpt lat="44.99979" lon="5.23312">
        <ele>1148</ele>
        <time>2023-03-21T11:23:21Z</time>
      </trkpt>
      <trkpt lat="44.99985" lon="5.23316">
        <ele>1146</ele>
        <time>2023-03-21T11:23:33Z</time>
      </trkpt>
      <trkpt lat="44.99991" lon="5.23316">
        <ele>1145</ele>
        <time>2023-03-21T11:23:40Z</time>
      </trkpt>
      <trkpt lat="44.99996" lon="5.23323">
        <ele>1145</ele>
        <time>2023-03-21T11:23:49Z</time>
      </trkpt>
      <trkpt lat="45.00001" lon="5.23328">
        <ele>1143</ele>
        <time>2023-03-21T11:23:55Z</time>
      </trkpt>
      <trkpt lat="45.00004" lon="5.23336">
        <ele>1143</ele>
        <time>2023-03-21T11:24:01Z</time>
      </trkpt>
      <trkpt lat="45.00007" lon="5.23343">
        <ele>1142</ele>
        <time>2023-03-21T11:24:07Z</time>
      </trkpt>
      <trkpt lat="45.00007" lon="5.23354">
        <ele>1142</ele>
        <time>2023-03-21T11:24:13Z</time>
      </trkpt>
      <trkpt lat="45.00007" lon="5.23363">
        <ele>1141</ele>
        <time>2023-03-21T11:24:20Z</time>
      </trkpt>
      <trkpt lat="45.00022" lon="5.2339">
        <ele>1137</ele>
        <time>2023-03-21T11:24:42Z</time>
      </trkpt>
      <trkpt lat="45.00025" lon="5.23397">
        <ele>1137</ele>
        <time>2023-03-21T11:24:47Z</time>
      </trkpt>
      <trkpt lat="45.00025" lon="5.23412">
        <ele>1137</ele>
        <time>2023-03-21T11:24:58Z</time>
      </trkpt>
      <trkpt lat="45.00019" lon="5.23414">
        <ele>1136</ele>
        <time>2023-03-21T11:25:03Z</time>
      </trkpt>
      <trkpt lat="45.00012" lon="5.23415">
        <ele>1137</ele>
        <time>2023-03-21T11:25:12Z</time>
      </trkpt>
      <trkpt lat="45.00009" lon="5.2341">
        <ele>1136</ele>
        <time>2023-03-21T11:25:19Z</time>
      </trkpt>
      <trkpt lat="45.00004" lon="5.23414">
        <ele>1133</ele>
        <time>2023-03-21T11:25:41Z</time>
      </trkpt>
      <trkpt lat="44.99993" lon="5.23419">
        <ele>1130</ele>
        <time>2023-03-21T11:25:55Z</time>
      </trkpt>
      <trkpt lat="44.99987" lon="5.23417">
        <ele>1129</ele>
        <time>2023-03-21T11:26:07Z</time>
      </trkpt>
      <trkpt lat="44.99982" lon="5.23413">
        <ele>1129</ele>
        <time>2023-03-21T11:26:14Z</time>
      </trkpt>
      <trkpt lat="44.99976" lon="5.23409">
        <ele>1129</ele>
        <time>2023-03-21T11:26:20Z</time>
      </trkpt>
      <trkpt lat="44.9997" lon="5.23409">
        <ele>1129</ele>
        <time>2023-03-21T11:26:27Z</time>
      </trkpt>
      <trkpt lat="44.99972" lon="5.23417">
        <ele>1127</ele>
        <time>2023-03-21T11:26:54Z</time>
      </trkpt>
      <trkpt lat="44.99977" lon="5.23433">
        <ele>1125</ele>
        <time>2023-03-21T11:27:07Z</time>
      </trkpt>
      <trkpt lat="44.99982" lon="5.2344">
        <ele>1125</ele>
        <time>2023-03-21T11:27:15Z</time>
      </trkpt>
      <trkpt lat="44.99986" lon="5.23445">
        <ele>1127</ele>
        <time>2023-03-21T11:27:25Z</time>
      </trkpt>
      <trkpt lat="44.99991" lon="5.23446">
        <ele>1128</ele>
        <time>2023-03-21T11:27:33Z</time>
      </trkpt>
      <trkpt lat="45.00003" lon="5.23459">
        <ele>1130</ele>
        <time>2023-03-21T11:27:48Z</time>
      </trkpt>
      <trkpt lat="45.00011" lon="5.23459">
        <ele>1131</ele>
        <time>2023-03-21T11:27:56Z</time>
      </trkpt>
      <trkpt lat="45.00018" lon="5.23458">
        <ele>1133</ele>
        <time>2023-03-21T11:28:03Z</time>
      </trkpt>
      <trkpt lat="45.00033" lon="5.2347">
        <ele>1134</ele>
        <time>2023-03-21T11:28:20Z</time>
      </trkpt>
      <trkpt lat="45.00038" lon="5.23474">
        <ele>1134</ele>
        <time>2023-03-21T11:28:24Z</time>
      </trkpt>
      <trkpt lat="45.00043" lon="5.23478">
        <ele>1132</ele>
        <time>2023-03-21T11:28:29Z</time>
      </trkpt>
      <trkpt lat="45.00054" lon="5.23477">
        <ele>1126</ele>
        <time>2023-03-21T11:28:41Z</time>
      </trkpt>
      <trkpt lat="45.00069" lon="5.2347">
        <ele>1125</ele>
        <time>2023-03-21T11:29:00Z</time>
      </trkpt>
      <trkpt lat="45.00073" lon="5.23464">
        <ele>1125</ele>
        <time>2023-03-21T11:29:06Z</time>
      </trkpt>
      <trkpt lat="45.00077" lon="5.23458">
        <ele>1125</ele>
        <time>2023-03-21T11:29:12Z</time>
      </trkpt>
      <trkpt lat="45.00079" lon="5.2345">
        <ele>1125</ele>
        <time>2023-03-21T11:29:18Z</time>
      </trkpt>
      <trkpt lat="45.00083" lon="5.23436">
        <ele>1126</ele>
        <time>2023-03-21T11:29:31Z</time>
      </trkpt>
      <trkpt lat="45.00087" lon="5.23424">
        <ele>1127</ele>
        <time>2023-03-21T11:29:43Z</time>
      </trkpt>
      <trkpt lat="45.00089" lon="5.23419">
        <ele>1128</ele>
        <time>2023-03-21T11:29:47Z</time>
      </trkpt>
      <trkpt lat="45.00089" lon="5.23412">
        <ele>1128</ele>
        <time>2023-03-21T11:29:53Z</time>
      </trkpt>
      <trkpt lat="45.00091" lon="5.23405">
        <ele>1128</ele>
        <time>2023-03-21T11:29:58Z</time>
      </trkpt>
      <trkpt lat="45.00092" lon="5.23399">
        <ele>1129</ele>
        <time>2023-03-21T11:30:03Z</time>
      </trkpt>
      <trkpt lat="45.0011" lon="5.23362">
        <ele>1129</ele>
        <time>2023-03-21T11:30:37Z</time>
      </trkpt>
      <trkpt lat="45.00121" lon="5.23353">
        <ele>1133</ele>
        <time>2023-03-21T11:30:52Z</time>
      </trkpt>
      <trkpt lat="45.00152" lon="5.2335">
        <ele>1140</ele>
        <time>2023-03-21T11:31:23Z</time>
      </trkpt>
      <trkpt lat="45.0016" lon="5.23346">
        <ele>1142</ele>
        <time>2023-03-21T11:31:34Z</time>
      </trkpt>
      <trkpt lat="45.00179" lon="5.23329">
        <ele>1143</ele>
        <time>2023-03-21T11:32:01Z</time>
      </trkpt>
      <trkpt lat="45.00185" lon="5.23328">
        <ele>1144</ele>
        <time>2023-03-21T11:32:08Z</time>
      </trkpt>
      <trkpt lat="45.00191" lon="5.23326">
        <ele>1145</ele>
        <time>2023-03-21T11:32:19Z</time>
      </trkpt>
      <trkpt lat="45.00203" lon="5.2332">
        <ele>1149</ele>
        <time>2023-03-21T11:32:35Z</time>
      </trkpt>
      <trkpt lat="45.0021" lon="5.23315">
        <ele>1150</ele>
        <time>2023-03-21T11:32:41Z</time>
      </trkpt>
      <trkpt lat="45.00217" lon="5.23313">
        <ele>1151</ele>
        <time>2023-03-21T11:32:50Z</time>
      </trkpt>
      <trkpt lat="45.00229" lon="5.23306">
        <ele>1152</ele>
        <time>2023-03-21T11:33:05Z</time>
      </trkpt>
      <trkpt lat="45.00267" lon="5.23298">
        <ele>1154</ele>
        <time>2023-03-21T11:33:44Z</time>
      </trkpt>
      <trkpt lat="45.00273" lon="5.23288">
        <ele>1154</ele>
        <time>2023-03-21T11:33:51Z</time>
      </trkpt>
      <trkpt lat="45.00282" lon="5.23274">
        <ele>1151</ele>
        <time>2023-03-21T11:34:03Z</time>
      </trkpt>
      <trkpt lat="45.00292" lon="5.23267">
        <ele>1152</ele>
        <time>2023-03-21T11:34:12Z</time>
      </trkpt>
      <trkpt lat="45.00296" lon="5.23264">
        <ele>1152</ele>
        <time>2023-03-21T11:34:18Z</time>
      </trkpt>
      <trkpt lat="45.00311" lon="5.23269">
        <ele>1150</ele>
        <time>2023-03-21T11:34:29Z</time>
      </trkpt>
      <trkpt lat="45.00334" lon="5.2328">
        <ele>1150</ele>
        <time>2023-03-21T11:34:48Z</time>
      </trkpt>
      <trkpt lat="45.0034" lon="5.23284">
        <ele>1149</ele>
        <time>2023-03-21T11:34:55Z</time>
      </trkpt>
      <trkpt lat="45.00347" lon="5.23289">
        <ele>1150</ele>
        <time>2023-03-21T11:35:04Z</time>
      </trkpt>
      <trkpt lat="45.00359" lon="5.23299">
        <ele>1154</ele>
        <time>2023-03-21T11:35:16Z</time>
      </trkpt>
      <trkpt lat="45.00366" lon="5.23313">
        <ele>1156</ele>
        <time>2023-03-21T11:35:28Z</time>
      </trkpt>
      <trkpt lat="45.00373" lon="5.23317">
        <ele>1156</ele>
        <time>2023-03-21T11:35:36Z</time>
      </trkpt>
      <trkpt lat="45.00393" lon="5.23309">
        <ele>1155</ele>
        <time>2023-03-21T11:36:01Z</time>
      </trkpt>
      <trkpt lat="45.00395" lon="5.23298">
        <ele>1154</ele>
        <time>2023-03-21T11:36:13Z</time>
      </trkpt>
      <trkpt lat="45.00398" lon="5.23288">
        <ele>1153</ele>
        <time>2023-03-21T11:36:23Z</time>
      </trkpt>
      <trkpt lat="45.00397" lon="5.23278">
        <ele>1152</ele>
        <time>2023-03-21T11:36:30Z</time>
      </trkpt>
      <trkpt lat="45.00402" lon="5.23251">
        <ele>1147</ele>
        <time>2023-03-21T11:36:47Z</time>
      </trkpt>
      <trkpt lat="45.0041" lon="5.23236">
        <ele>1147</ele>
        <time>2023-03-21T11:36:58Z</time>
      </trkpt>
      <trkpt lat="45.00416" lon="5.23231">
        <ele>1148</ele>
        <time>2023-03-21T11:37:04Z</time>
      </trkpt>
      <trkpt lat="45.00427" lon="5.23232">
        <ele>1148</ele>
        <time>2023-03-21T11:37:16Z</time>
      </trkpt>
      <trkpt lat="45.00431" lon="5.23236">
        <ele>1144</ele>
        <time>2023-03-21T11:37:23Z</time>
      </trkpt>
      <trkpt lat="45.00436" lon="5.23231">
        <ele>1140</ele>
        <time>2023-03-21T11:37:55Z</time>
      </trkpt>
      <trkpt lat="45.0045" lon="5.23215">
        <ele>1137</ele>
        <time>2023-03-21T11:38:16Z</time>
      </trkpt>
      <trkpt lat="45.00457" lon="5.23201">
        <ele>1137</ele>
        <time>2023-03-21T11:38:34Z</time>
      </trkpt>
      <trkpt lat="45.00458" lon="5.23179">
        <ele>1138</ele>
        <time>2023-03-21T11:38:56Z</time>
      </trkpt>
      <trkpt lat="45.00464" lon="5.23165">
        <ele>1140</ele>
        <time>2023-03-21T11:39:08Z</time>
      </trkpt>
      <trkpt lat="45.00466" lon="5.23158">
        <ele>1141</ele>
        <time>2023-03-21T11:39:19Z</time>
      </trkpt>
      <trkpt lat="45.00467" lon="5.23151">
        <ele>1141</ele>
        <time>2023-03-21T11:39:26Z</time>
      </trkpt>
      <trkpt lat="45.00471" lon="5.23146">
        <ele>1142</ele>
        <time>2023-03-21T11:39:36Z</time>
      </trkpt>
      <trkpt lat="45.00474" lon="5.23138">
        <ele>1143</ele>
        <time>2023-03-21T11:39:47Z</time>
      </trkpt>
      <trkpt lat="45.00474" lon="5.23132">
        <ele>1147</ele>
        <time>2023-03-21T11:40:00Z</time>
      </trkpt>
      <trkpt lat="45.00479" lon="5.23136">
        <ele>1147</ele>
        <time>2023-03-21T11:40:17Z</time>
      </trkpt>
      <trkpt lat="45.00493" lon="5.23137">
        <ele>1149</ele>
        <time>2023-03-21T11:40:53Z</time>
      </trkpt>
      <trkpt lat="45.00497" lon="5.2313">
        <ele>1149</ele>
        <time>2023-03-21T11:41:01Z</time>
      </trkpt>
      <trkpt lat="45.00501" lon="5.23123">
        <ele>1148</ele>
        <time>2023-03-21T11:41:07Z</time>
      </trkpt>
      <trkpt lat="45.00504" lon="5.23114">
        <ele>1148</ele>
        <time>2023-03-21T11:41:15Z</time>
      </trkpt>
      <trkpt lat="45.00508" lon="5.23105">
        <ele>1150</ele>
        <time>2023-03-21T11:41:24Z</time>
      </trkpt>
      <trkpt lat="45.0051" lon="5.23096">
        <ele>1151</ele>
        <time>2023-03-21T11:41:33Z</time>
      </trkpt>
      <trkpt lat="45.00511" lon="5.23087">
        <ele>1151</ele>
        <time>2023-03-21T11:41:41Z</time>
      </trkpt>
      <trkpt lat="45.00509" lon="5.23078">
        <ele>1150</ele>
        <time>2023-03-21T11:41:55Z</time>
      </trkpt>
      <trkpt lat="45.00509" lon="5.23069">
        <ele>1149</ele>
        <time>2023-03-21T11:42:38Z</time>
      </trkpt>
      <trkpt lat="45.00509" lon="5.23055">
        <ele>1149</ele>
        <time>2023-03-21T11:42:51Z</time>
      </trkpt>
      <trkpt lat="45.00518" lon="5.23029">
        <ele>1149</ele>
        <time>2023-03-21T11:44:25Z</time>
      </trkpt>
      <trkpt lat="45.00517" lon="5.23013">
        <ele>1146</ele>
        <time>2023-03-21T11:45:50Z</time>
      </trkpt>
      <trkpt lat="45.00516" lon="5.22997">
        <ele>1143</ele>
        <time>2023-03-21T11:46:15Z</time>
      </trkpt>
      <trkpt lat="45.00507" lon="5.22989">
        <ele>1141</ele>
        <time>2023-03-21T11:46:36Z</time>
      </trkpt>
      <trkpt lat="45.00504" lon="5.22978">
        <ele>1139</ele>
        <time>2023-03-21T11:47:12Z</time>
      </trkpt>
      <trkpt lat="45.00503" lon="5.2297">
        <ele>1133</ele>
        <time>2023-03-21T11:47:55Z</time>
      </trkpt>
      <trkpt lat="45.00507" lon="5.22969">
        <ele>1132</ele>
        <time>2023-03-21T11:49:23Z</time>
      </trkpt>
      <trkpt lat="45.00504" lon="5.22961">
        <ele>1133</ele>
        <time>2023-03-21T11:50:25Z</time>
      </trkpt>
      <trkpt lat="45.00501" lon="5.22952">
        <ele>1132</ele>
        <time>2023-03-21T11:50:41Z</time>
      </trkpt>
      <trkpt lat="45.00499" lon="5.22947">
        <ele>1133</ele>
        <time>2023-03-21T11:51:36Z</time>
      </trkpt>
      <trkpt lat="45.00487" lon="5.22938">
        <ele>1121</ele>
        <time>2023-03-21T11:52:10Z</time>
      </trkpt>
      <trkpt lat="45.00484" lon="5.22929">
        <ele>1122</ele>
        <time>2023-03-21T11:52:23Z</time>
      </trkpt>
      <trkpt lat="45.0048" lon="5.22923">
        <ele>1122</ele>
        <time>2023-03-21T11:52:35Z</time>
      </trkpt>
      <trkpt lat="45.00476" lon="5.22915">
        <ele>1122</ele>
        <time>2023-03-21T11:52:43Z</time>
      </trkpt>
      <trkpt lat="45.00475" lon="5.22903">
        <ele>1120</ele>
        <time>2023-03-21T11:52:58Z</time>
      </trkpt>
      <trkpt lat="45.00474" lon="5.22892">
        <ele>1117</ele>
        <time>2023-03-21T11:53:08Z</time>
      </trkpt>
      <trkpt lat="45.00472" lon="5.22881">
        <ele>1116</ele>
        <time>2023-03-21T11:53:16Z</time>
      </trkpt>
      <trkpt lat="45.0047" lon="5.22874">
        <ele>1114</ele>
        <time>2023-03-21T11:53:57Z</time>
      </trkpt>
      <trkpt lat="45.00472" lon="5.22864">
        <ele>1113</ele>
        <time>2023-03-21T11:54:28Z</time>
      </trkpt>
      <trkpt lat="45.00467" lon="5.2286">
        <ele>1113</ele>
        <time>2023-03-21T11:55:26Z</time>
      </trkpt>
      <trkpt lat="45.00469" lon="5.22856">
        <ele>1110</ele>
        <time>2023-03-21T11:56:20Z</time>
      </trkpt>
      <trkpt lat="45.00468" lon="5.22851">
        <ele>1113</ele>
        <time>2023-03-21T11:58:33Z</time>
      </trkpt>
      <trkpt lat="45.00463" lon="5.22855">
        <ele>1113</ele>
        <time>2023-03-21T11:58:44Z</time>
      </trkpt>
      <trkpt lat="45.00457" lon="5.22856">
        <ele>1114</ele>
        <time>2023-03-21T11:58:54Z</time>
      </trkpt>
      <trkpt lat="45.00453" lon="5.2285">
        <ele>1115</ele>
        <time>2023-03-21T11:59:07Z</time>
      </trkpt>
      <trkpt lat="45.00449" lon="5.22844">
        <ele>1117</ele>
        <time>2023-03-21T11:59:22Z</time>
      </trkpt>
      <trkpt lat="45.00446" lon="5.22837">
        <ele>1117</ele>
        <time>2023-03-21T11:59:30Z</time>
      </trkpt>
      <trkpt lat="45.00444" lon="5.2283">
        <ele>1116</ele>
        <time>2023-03-21T12:00:10Z</time>
      </trkpt>
      <trkpt lat="45.00439" lon="5.22826">
        <ele>1116</ele>
        <time>2023-03-21T12:00:16Z</time>
      </trkpt>
      <trkpt lat="45.00436" lon="5.22817">
        <ele>1112</ele>
        <time>2023-03-21T12:00:27Z</time>
      </trkpt>
      <trkpt lat="45.00432" lon="5.22809">
        <ele>1117</ele>
        <time>2023-03-21T12:00:37Z</time>
      </trkpt>
      <trkpt lat="45.00425" lon="5.22795">
        <ele>1118</ele>
        <time>2023-03-21T12:00:51Z</time>
      </trkpt>
      <trkpt lat="45.00419" lon="5.22791">
        <ele>1118</ele>
        <time>2023-03-21T12:00:57Z</time>
      </trkpt>
      <trkpt lat="45.00419" lon="5.22783">
        <ele>1118</ele>
        <time>2023-03-21T12:01:21Z</time>
      </trkpt>
      <trkpt lat="45.00408" lon="5.22773">
        <ele>1117</ele>
        <time>2023-03-21T12:01:35Z</time>
      </trkpt>
      <trkpt lat="45.00407" lon="5.22765">
        <ele>1117</ele>
        <time>2023-03-21T12:01:47Z</time>
      </trkpt>
      <trkpt lat="45.00404" lon="5.22758">
        <ele>1118</ele>
        <time>2023-03-21T12:01:53Z</time>
      </trkpt>
      <trkpt lat="45.00403" lon="5.22748">
        <ele>1118</ele>
        <time>2023-03-21T12:01:59Z</time>
      </trkpt>
      <trkpt lat="45.00401" lon="5.22738">
        <ele>1117</ele>
        <time>2023-03-21T12:02:06Z</time>
      </trkpt>
      <trkpt lat="45.00397" lon="5.22731">
        <ele>1115</ele>
        <time>2023-03-21T12:02:14Z</time>
      </trkpt>
      <trkpt lat="45.00389" lon="5.22713">
        <ele>1109</ele>
        <time>2023-03-21T12:02:30Z</time>
      </trkpt>
      <trkpt lat="45.00387" lon="5.22706">
        <ele>1108</ele>
        <time>2023-03-21T12:02:38Z</time>
      </trkpt>
      <trkpt lat="45.00386" lon="5.227">
        <ele>1104</ele>
        <time>2023-03-21T12:02:48Z</time>
      </trkpt>
      <trkpt lat="45.00383" lon="5.22695">
        <ele>1101</ele>
        <time>2023-03-21T12:03:07Z</time>
      </trkpt>
      <trkpt lat="45.00382" lon="5.2269">
        <ele>1100</ele>
        <time>2023-03-21T12:03:11Z</time>
      </trkpt>
      <trkpt lat="45.00375" lon="5.22663">
        <ele>1096</ele>
        <time>2023-03-21T12:03:37Z</time>
      </trkpt>
      <trkpt lat="45.00365" lon="5.22645">
        <ele>1096</ele>
        <time>2023-03-21T12:03:55Z</time>
      </trkpt>
      <trkpt lat="45.00364" lon="5.22638">
        <ele>1095</ele>
        <time>2023-03-21T12:04:01Z</time>
      </trkpt>
      <trkpt lat="45.00362" lon="5.22624">
        <ele>1093</ele>
        <time>2023-03-21T12:04:12Z</time>
      </trkpt>
      <trkpt lat="45.00359" lon="5.2262">
        <ele>1093</ele>
        <time>2023-03-21T12:04:18Z</time>
      </trkpt>
      <trkpt lat="45.00356" lon="5.22615">
        <ele>1093</ele>
        <time>2023-03-21T12:04:22Z</time>
      </trkpt>
      <trkpt lat="45.00353" lon="5.22603">
        <ele>1091</ele>
        <time>2023-03-21T12:04:31Z</time>
      </trkpt>
      <trkpt lat="45.00347" lon="5.22587">
        <ele>1090</ele>
        <time>2023-03-21T12:04:45Z</time>
      </trkpt>
      <trkpt lat="45.00344" lon="5.22573">
        <ele>1090</ele>
        <time>2023-03-21T12:04:55Z</time>
      </trkpt>
      <trkpt lat="45.00342" lon="5.22552">
        <ele>1091</ele>
        <time>2023-03-21T12:05:12Z</time>
      </trkpt>
      <trkpt lat="45.00339" lon="5.22539">
        <ele>1092</ele>
        <time>2023-03-21T12:05:25Z</time>
      </trkpt>
      <trkpt lat="45.00332" lon="5.22524">
        <ele>1092</ele>
        <time>2023-03-21T12:05:41Z</time>
      </trkpt>
      <trkpt lat="45.00329" lon="5.22505">
        <ele>1094</ele>
        <time>2023-03-21T12:05:55Z</time>
      </trkpt>
      <trkpt lat="45.00329" lon="5.22496">
        <ele>1093</ele>
        <time>2023-03-21T12:06:02Z</time>
      </trkpt>
      <trkpt lat="45.00328" lon="5.22476">
        <ele>1092</ele>
        <time>2023-03-21T12:06:24Z</time>
      </trkpt>
      <trkpt lat="45.00331" lon="5.22481">
        <ele>1088</ele>
        <time>2023-03-21T12:06:59Z</time>
      </trkpt>
      <trkpt lat="45.00339" lon="5.22482">
        <ele>1089</ele>
        <time>2023-03-21T12:07:13Z</time>
      </trkpt>
      <trkpt lat="45.00346" lon="5.22493">
        <ele>1091</ele>
        <time>2023-03-21T12:07:25Z</time>
      </trkpt>
      <trkpt lat="45.00349" lon="5.22502">
        <ele>1090</ele>
        <time>2023-03-21T12:07:35Z</time>
      </trkpt>
      <trkpt lat="45.00353" lon="5.22513">
        <ele>1089</ele>
        <time>2023-03-21T12:07:43Z</time>
      </trkpt>
      <trkpt lat="45.00362" lon="5.22519">
        <ele>1090</ele>
        <time>2023-03-21T12:07:51Z</time>
      </trkpt>
      <trkpt lat="45.00367" lon="5.22527">
        <ele>1090</ele>
        <time>2023-03-21T12:08:00Z</time>
      </trkpt>
      <trkpt lat="45.0037" lon="5.22536">
        <ele>1089</ele>
        <time>2023-03-21T12:08:09Z</time>
      </trkpt>
      <trkpt lat="45.00377" lon="5.22551">
        <ele>1082</ele>
        <time>2023-03-21T12:08:30Z</time>
      </trkpt>
      <trkpt lat="45.00382" lon="5.22557">
        <ele>1079</ele>
        <time>2023-03-21T12:08:36Z</time>
      </trkpt>
      <trkpt lat="45.00387" lon="5.22565">
        <ele>1077</ele>
        <time>2023-03-21T12:08:45Z</time>
      </trkpt>
      <trkpt lat="45.00391" lon="5.22574">
        <ele>1075</ele>
        <time>2023-03-21T12:08:55Z</time>
      </trkpt>
      <trkpt lat="45.00405" lon="5.22584">
        <ele>1076</ele>
        <time>2023-03-21T12:09:10Z</time>
      </trkpt>
      <trkpt lat="45.00411" lon="5.22587">
        <ele>1076</ele>
        <time>2023-03-21T12:09:17Z</time>
      </trkpt>
      <trkpt lat="45.00416" lon="5.22593">
        <ele>1075</ele>
        <time>2023-03-21T12:09:22Z</time>
      </trkpt>
      <trkpt lat="45.00423" lon="5.22607">
        <ele>1074</ele>
        <time>2023-03-21T12:09:38Z</time>
      </trkpt>
      <trkpt lat="45.00437" lon="5.22628">
        <ele>1065</ele>
        <time>2023-03-21T12:10:01Z</time>
      </trkpt>
      <trkpt lat="45.00443" lon="5.22629">
        <ele>1063</ele>
        <time>2023-03-21T12:10:07Z</time>
      </trkpt>
      <trkpt lat="45.00446" lon="5.22634">
        <ele>1061</ele>
        <time>2023-03-21T12:10:14Z</time>
      </trkpt>
      <trkpt lat="45.00451" lon="5.22637">
        <ele>1061</ele>
        <time>2023-03-21T12:10:19Z</time>
      </trkpt>
      <trkpt lat="45.0046" lon="5.22646">
        <ele>1060</ele>
        <time>2023-03-21T12:10:31Z</time>
      </trkpt>
      <trkpt lat="45.00465" lon="5.2265">
        <ele>1060</ele>
        <time>2023-03-21T12:10:38Z</time>
      </trkpt>
      <trkpt lat="45.00476" lon="5.22666">
        <ele>1058</ele>
        <time>2023-03-21T12:10:55Z</time>
      </trkpt>
      <trkpt lat="45.00485" lon="5.22673">
        <ele>1057</ele>
        <time>2023-03-21T12:11:06Z</time>
      </trkpt>
      <trkpt lat="45.0049" lon="5.22678">
        <ele>1056</ele>
        <time>2023-03-21T12:11:12Z</time>
      </trkpt>
      <trkpt lat="45.00515" lon="5.22705">
        <ele>1053</ele>
        <time>2023-03-21T12:11:46Z</time>
      </trkpt>
      <trkpt lat="45.00538" lon="5.22731">
        <ele>1048</ele>
        <time>2023-03-21T12:12:19Z</time>
      </trkpt>
      <trkpt lat="45.00547" lon="5.22737">
        <ele>1047</ele>
        <time>2023-03-21T12:12:29Z</time>
      </trkpt>
      <trkpt lat="45.00552" lon="5.22742">
        <ele>1046</ele>
        <time>2023-03-21T12:12:35Z</time>
      </trkpt>
      <trkpt lat="45.00561" lon="5.22751">
        <ele>1044</ele>
        <time>2023-03-21T12:12:49Z</time>
      </trkpt>
      <trkpt lat="45.00569" lon="5.22761">
        <ele>1043</ele>
        <time>2023-03-21T12:13:02Z</time>
      </trkpt>
      <trkpt lat="45.00586" lon="5.22775">
        <ele>1041</ele>
        <time>2023-03-21T12:13:23Z</time>
      </trkpt>
      <trkpt lat="45.00592" lon="5.22781">
        <ele>1040</ele>
        <time>2023-03-21T12:13:30Z</time>
      </trkpt>
      <trkpt lat="45.00596" lon="5.22788">
        <ele>1039</ele>
        <time>2023-03-21T12:13:37Z</time>
      </trkpt>
      <trkpt lat="45.00602" lon="5.22796">
        <ele>1037</ele>
        <time>2023-03-21T12:13:45Z</time>
      </trkpt>
      <trkpt lat="45.00606" lon="5.22801">
        <ele>1036</ele>
        <time>2023-03-21T12:13:52Z</time>
      </trkpt>
      <trkpt lat="45.00613" lon="5.22807">
        <ele>1033</ele>
        <time>2023-03-21T12:14:00Z</time>
      </trkpt>
      <trkpt lat="45.00618" lon="5.2281">
        <ele>1032</ele>
        <time>2023-03-21T12:14:07Z</time>
      </trkpt>
      <trkpt lat="45.00631" lon="5.22823">
        <ele>1032</ele>
        <time>2023-03-21T12:14:23Z</time>
      </trkpt>
      <trkpt lat="45.00658" lon="5.22845">
        <ele>1025</ele>
        <time>2023-03-21T12:14:55Z</time>
      </trkpt>
      <trkpt lat="45.00664" lon="5.22851">
        <ele>1023</ele>
        <time>2023-03-21T12:15:03Z</time>
      </trkpt>
      <trkpt lat="45.00671" lon="5.22856">
        <ele>1021</ele>
        <time>2023-03-21T12:15:11Z</time>
      </trkpt>
      <trkpt lat="45.00698" lon="5.22878">
        <ele>1014</ele>
        <time>2023-03-21T12:15:45Z</time>
      </trkpt>
      <trkpt lat="45.0071" lon="5.2289">
        <ele>1013</ele>
        <time>2023-03-21T12:15:59Z</time>
      </trkpt>
      <trkpt lat="45.0074" lon="5.22916">
        <ele>1008</ele>
        <time>2023-03-21T12:16:33Z</time>
      </trkpt>
      <trkpt lat="45.00747" lon="5.2292">
        <ele>1006</ele>
        <time>2023-03-21T12:16:41Z</time>
      </trkpt>
      <trkpt lat="45.00748" lon="5.22914">
        <ele>1004</ele>
        <time>2023-03-21T12:16:54Z</time>
      </trkpt>
      <trkpt lat="45.00745" lon="5.22909">
        <ele>1003</ele>
        <time>2023-03-21T12:16:59Z</time>
      </trkpt>
      <trkpt lat="45.00735" lon="5.22869">
        <ele>996</ele>
        <time>2023-03-21T12:17:30Z</time>
      </trkpt>
      <trkpt lat="45.00729" lon="5.22849">
        <ele>995</ele>
        <time>2023-03-21T12:17:45Z</time>
      </trkpt>
      <trkpt lat="45.00729" lon="5.22825">
        <ele>995</ele>
        <time>2023-03-21T12:18:02Z</time>
      </trkpt>
      <trkpt lat="45.00726" lon="5.22808">
        <ele>995</ele>
        <time>2023-03-21T12:18:14Z</time>
      </trkpt>
      <trkpt lat="45.00715" lon="5.2277">
        <ele>988</ele>
        <time>2023-03-21T12:18:44Z</time>
      </trkpt>
      <trkpt lat="45.00712" lon="5.22764">
        <ele>987</ele>
        <time>2023-03-21T12:18:49Z</time>
      </trkpt>
      <trkpt lat="45.00708" lon="5.22739">
        <ele>986</ele>
        <time>2023-03-21T12:19:09Z</time>
      </trkpt>
      <trkpt lat="45.00706" lon="5.22729">
        <ele>986</ele>
        <time>2023-03-21T12:19:16Z</time>
      </trkpt>
      <trkpt lat="45.007" lon="5.22722">
        <ele>987</ele>
        <time>2023-03-21T12:19:23Z</time>
      </trkpt>
      <trkpt lat="45.00696" lon="5.22715">
        <ele>987</ele>
        <time>2023-03-21T12:19:30Z</time>
      </trkpt>
      <trkpt lat="45.00696" lon="5.22703">
        <ele>986</ele>
        <time>2023-03-21T12:19:38Z</time>
      </trkpt>
      <trkpt lat="45.00698" lon="5.22693">
        <ele>986</ele>
        <time>2023-03-21T12:19:47Z</time>
      </trkpt>
      <trkpt lat="45.00708" lon="5.22695">
        <ele>984</ele>
        <time>2023-03-21T12:19:56Z</time>
      </trkpt>
      <trkpt lat="45.00716" lon="5.22699">
        <ele>980</ele>
        <time>2023-03-21T12:20:05Z</time>
      </trkpt>
      <trkpt lat="45.00723" lon="5.22703">
        <ele>979</ele>
        <time>2023-03-21T12:20:16Z</time>
      </trkpt>
      <trkpt lat="45.00739" lon="5.22703">
        <ele>976</ele>
        <time>2023-03-21T12:20:39Z</time>
      </trkpt>
      <trkpt lat="45.00744" lon="5.2271">
        <ele>972</ele>
        <time>2023-03-21T12:20:46Z</time>
      </trkpt>
      <trkpt lat="45.00766" lon="5.22729">
        <ele>969</ele>
        <time>2023-03-21T12:21:14Z</time>
      </trkpt>
      <trkpt lat="45.00772" lon="5.22733">
        <ele>966</ele>
        <time>2023-03-21T12:21:21Z</time>
      </trkpt>
      <trkpt lat="45.00777" lon="5.22737">
        <ele>964</ele>
        <time>2023-03-21T12:21:29Z</time>
      </trkpt>
      <trkpt lat="45.00784" lon="5.22741">
        <ele>963</ele>
        <time>2023-03-21T12:21:36Z</time>
      </trkpt>
      <trkpt lat="45.00789" lon="5.22741">
        <ele>961</ele>
        <time>2023-03-21T12:21:43Z</time>
      </trkpt>
      <trkpt lat="45.00796" lon="5.22744">
        <ele>960</ele>
        <time>2023-03-21T12:21:51Z</time>
      </trkpt>
      <trkpt lat="45.00801" lon="5.2275">
        <ele>958</ele>
        <time>2023-03-21T12:21:59Z</time>
      </trkpt>
      <trkpt lat="45.00811" lon="5.2276">
        <ele>956</ele>
        <time>2023-03-21T12:22:12Z</time>
      </trkpt>
      <trkpt lat="45.00819" lon="5.22765">
        <ele>956</ele>
        <time>2023-03-21T12:22:19Z</time>
      </trkpt>
      <trkpt lat="45.00824" lon="5.22768">
        <ele>956</ele>
        <time>2023-03-21T12:22:25Z</time>
      </trkpt>
      <trkpt lat="45.00831" lon="5.22774">
        <ele>957</ele>
        <time>2023-03-21T12:22:34Z</time>
      </trkpt>
      <trkpt lat="45.0084" lon="5.22787">
        <ele>956</ele>
        <time>2023-03-21T12:22:47Z</time>
      </trkpt>
      <trkpt lat="45.0085" lon="5.22798">
        <ele>956</ele>
        <time>2023-03-21T12:23:00Z</time>
      </trkpt>
      <trkpt lat="45.00854" lon="5.22805">
        <ele>954</ele>
        <time>2023-03-21T12:23:05Z</time>
      </trkpt>
      <trkpt lat="45.00863" lon="5.22817">
        <ele>952</ele>
        <time>2023-03-21T12:23:18Z</time>
      </trkpt>
      <trkpt lat="45.00867" lon="5.22824">
        <ele>952</ele>
        <time>2023-03-21T12:23:26Z</time>
      </trkpt>
      <trkpt lat="45.00871" lon="5.22829">
        <ele>952</ele>
        <time>2023-03-21T12:23:33Z</time>
      </trkpt>
      <trkpt lat="45.00871" lon="5.22832">
        <ele>951</ele>
        <time>2023-03-21T12:30:20Z</time>
      </trkpt>
      <trkpt lat="45.00874" lon="5.22825">
        <ele>950</ele>
        <time>2023-03-21T12:31:35Z</time>
      </trkpt>
      <trkpt lat="45.00878" lon="5.22821">
        <ele>947</ele>
        <time>2023-03-21T12:31:49Z</time>
      </trkpt>
      <trkpt lat="45.00887" lon="5.22822">
        <ele>944</ele>
        <time>2023-03-21T12:31:57Z</time>
      </trkpt>
      <trkpt lat="45.0089" lon="5.22824">
        <ele>944</ele>
        <time>2023-03-21T12:32:01Z</time>
      </trkpt>
      <trkpt lat="45.00898" lon="5.22832">
        <ele>945</ele>
        <time>2023-03-21T12:32:12Z</time>
      </trkpt>
      <trkpt lat="45.00903" lon="5.22835">
        <ele>945</ele>
        <time>2023-03-21T12:32:19Z</time>
      </trkpt>
      <trkpt lat="45.00907" lon="5.22834">
        <ele>945</ele>
        <time>2023-03-21T12:32:28Z</time>
      </trkpt>
      <trkpt lat="45.0091" lon="5.2284">
        <ele>943</ele>
        <time>2023-03-21T12:32:39Z</time>
      </trkpt>
      <trkpt lat="45.00915" lon="5.22844">
        <ele>944</ele>
        <time>2023-03-21T12:32:46Z</time>
      </trkpt>
      <trkpt lat="45.0092" lon="5.22847">
        <ele>944</ele>
        <time>2023-03-21T12:32:52Z</time>
      </trkpt>
      <trkpt lat="45.0093" lon="5.2285">
        <ele>945</ele>
        <time>2023-03-21T12:33:03Z</time>
      </trkpt>
      <trkpt lat="45.00941" lon="5.22854">
        <ele>943</ele>
        <time>2023-03-21T12:33:17Z</time>
      </trkpt>
      <trkpt lat="45.00948" lon="5.22852">
        <ele>943</ele>
        <time>2023-03-21T12:33:25Z</time>
      </trkpt>
      <trkpt lat="45.00955" lon="5.22855">
        <ele>944</ele>
        <time>2023-03-21T12:33:34Z</time>
      </trkpt>
      <trkpt lat="45.00987" lon="5.22863">
        <ele>942</ele>
        <time>2023-03-21T12:34:08Z</time>
      </trkpt>
      <trkpt lat="45.00995" lon="5.22868">
        <ele>942</ele>
        <time>2023-03-21T12:34:19Z</time>
      </trkpt>
      <trkpt lat="45.01004" lon="5.22868">
        <ele>942</ele>
        <time>2023-03-21T12:34:27Z</time>
      </trkpt>
      <trkpt lat="45.01011" lon="5.22874">
        <ele>942</ele>
        <time>2023-03-21T12:34:34Z</time>
      </trkpt>
      <trkpt lat="45.01033" lon="5.22878">
        <ele>940</ele>
        <time>2023-03-21T12:34:54Z</time>
      </trkpt>
      <trkpt lat="45.01069" lon="5.22887">
        <ele>933</ele>
        <time>2023-03-21T12:35:29Z</time>
      </trkpt>
      <trkpt lat="45.01093" lon="5.22896">
        <ele>930</ele>
        <time>2023-03-21T12:35:54Z</time>
      </trkpt>
      <trkpt lat="45.0111" lon="5.22904">
        <ele>927</ele>
        <time>2023-03-21T12:36:12Z</time>
      </trkpt>
      <trkpt lat="45.01118" lon="5.22907">
        <ele>926</ele>
        <time>2023-03-21T12:36:19Z</time>
      </trkpt>
      <trkpt lat="45.01124" lon="5.22911">
        <ele>923</ele>
        <time>2023-03-21T12:36:24Z</time>
      </trkpt>
      <trkpt lat="45.0114" lon="5.22915">
        <ele>921</ele>
        <time>2023-03-21T12:36:40Z</time>
      </trkpt>
      <trkpt lat="45.01157" lon="5.22921">
        <ele>921</ele>
        <time>2023-03-21T12:36:55Z</time>
      </trkpt>
      <trkpt lat="45.01165" lon="5.22925">
        <ele>917</ele>
        <time>2023-03-21T12:37:02Z</time>
      </trkpt>
      <trkpt lat="45.01172" lon="5.22928">
        <ele>917</ele>
        <time>2023-03-21T12:37:10Z</time>
      </trkpt>
      <trkpt lat="45.0118" lon="5.2293">
        <ele>920</ele>
        <time>2023-03-21T12:37:17Z</time>
      </trkpt>
      <trkpt lat="45.01188" lon="5.22935">
        <ele>920</ele>
        <time>2023-03-21T12:37:25Z</time>
      </trkpt>
      <trkpt lat="45.01212" lon="5.22943">
        <ele>915</ele>
        <time>2023-03-21T12:37:48Z</time>
      </trkpt>
      <trkpt lat="45.01221" lon="5.22945">
        <ele>915</ele>
        <time>2023-03-21T12:37:57Z</time>
      </trkpt>
      <trkpt lat="45.01229" lon="5.22949">
        <ele>916</ele>
        <time>2023-03-21T12:38:04Z</time>
      </trkpt>
      <trkpt lat="45.01237" lon="5.22951">
        <ele>913</ele>
        <time>2023-03-21T12:38:10Z</time>
      </trkpt>
      <trkpt lat="45.01261" lon="5.22961">
        <ele>914</ele>
        <time>2023-03-21T12:38:32Z</time>
      </trkpt>
      <trkpt lat="45.01269" lon="5.22965">
        <ele>912</ele>
        <time>2023-03-21T12:38:39Z</time>
      </trkpt>
      <trkpt lat="45.01276" lon="5.22971">
        <ele>911</ele>
        <time>2023-03-21T12:38:49Z</time>
      </trkpt>
      <trkpt lat="45.01284" lon="5.22974">
        <ele>908</ele>
        <time>2023-03-21T12:38:58Z</time>
      </trkpt>
      <trkpt lat="45.01292" lon="5.22975">
        <ele>904</ele>
        <time>2023-03-21T12:39:21Z</time>
      </trkpt>
      <trkpt lat="45.013" lon="5.22979">
        <ele>902</ele>
        <time>2023-03-21T12:39:29Z</time>
      </trkpt>
      <trkpt lat="45.01308" lon="5.22982">
        <ele>901</ele>
        <time>2023-03-21T12:39:37Z</time>
      </trkpt>
      <trkpt lat="45.01316" lon="5.22983">
        <ele>897</ele>
        <time>2023-03-21T12:39:46Z</time>
      </trkpt>
      <trkpt lat="45.01324" lon="5.22983">
        <ele>895</ele>
        <time>2023-03-21T12:39:55Z</time>
      </trkpt>
      <trkpt lat="45.01331" lon="5.22985">
        <ele>894</ele>
        <time>2023-03-21T12:40:01Z</time>
      </trkpt>
      <trkpt lat="45.01338" lon="5.22984">
        <ele>893</ele>
        <time>2023-03-21T12:40:08Z</time>
      </trkpt>
      <trkpt lat="45.01343" lon="5.22979">
        <ele>892</ele>
        <time>2023-03-21T12:40:17Z</time>
      </trkpt>
      <trkpt lat="45.01342" lon="5.22969">
        <ele>891</ele>
        <time>2023-03-21T12:40:27Z</time>
      </trkpt>
      <trkpt lat="45.01338" lon="5.22949">
        <ele>892</ele>
        <time>2023-03-21T12:40:45Z</time>
      </trkpt>
      <trkpt lat="45.01337" lon="5.22936">
        <ele>894</ele>
        <time>2023-03-21T12:40:53Z</time>
      </trkpt>
      <trkpt lat="45.01331" lon="5.22893">
        <ele>895</ele>
        <time>2023-03-21T12:41:28Z</time>
      </trkpt>
      <trkpt lat="45.01331" lon="5.22882">
        <ele>894</ele>
        <time>2023-03-21T12:41:34Z</time>
      </trkpt>
      <trkpt lat="45.01329" lon="5.22872">
        <ele>896</ele>
        <time>2023-03-21T12:41:41Z</time>
      </trkpt>
      <trkpt lat="45.0133" lon="5.22863">
        <ele>897</ele>
        <time>2023-03-21T12:41:48Z</time>
      </trkpt>
      <trkpt lat="45.01325" lon="5.22845">
        <ele>899</ele>
        <time>2023-03-21T12:42:01Z</time>
      </trkpt>
      <trkpt lat="45.01324" lon="5.22834">
        <ele>902</ele>
        <time>2023-03-21T12:42:10Z</time>
      </trkpt>
      <trkpt lat="45.0132" lon="5.22816">
        <ele>903</ele>
        <time>2023-03-21T12:42:22Z</time>
      </trkpt>
      <trkpt lat="45.01315" lon="5.22784">
        <ele>901</ele>
        <time>2023-03-21T12:42:44Z</time>
      </trkpt>
      <trkpt lat="45.01311" lon="5.22772">
        <ele>902</ele>
        <time>2023-03-21T12:42:53Z</time>
      </trkpt>
      <trkpt lat="45.0131" lon="5.22763">
        <ele>902</ele>
        <time>2023-03-21T12:42:59Z</time>
      </trkpt>
      <trkpt lat="45.01311" lon="5.22752">
        <ele>903</ele>
        <time>2023-03-21T12:43:08Z</time>
      </trkpt>
      <trkpt lat="45.0131" lon="5.22741">
        <ele>904</ele>
        <time>2023-03-21T12:43:15Z</time>
      </trkpt>
      <trkpt lat="45.0131" lon="5.22731">
        <ele>904</ele>
        <time>2023-03-21T12:43:21Z</time>
      </trkpt>
      <trkpt lat="45.0131" lon="5.22722">
        <ele>905</ele>
        <time>2023-03-21T12:43:28Z</time>
      </trkpt>
      <trkpt lat="45.01312" lon="5.22711">
        <ele>907</ele>
        <time>2023-03-21T12:43:36Z</time>
      </trkpt>
      <trkpt lat="45.01311" lon="5.22702">
        <ele>906</ele>
        <time>2023-03-21T12:43:43Z</time>
      </trkpt>
      <trkpt lat="45.0131" lon="5.2269">
        <ele>906</ele>
        <time>2023-03-21T12:43:51Z</time>
      </trkpt>
      <trkpt lat="45.01311" lon="5.2267">
        <ele>909</ele>
        <time>2023-03-21T12:44:04Z</time>
      </trkpt>
      <trkpt lat="45.01316" lon="5.22654">
        <ele>907</ele>
        <time>2023-03-21T12:44:14Z</time>
      </trkpt>
      <trkpt lat="45.01316" lon="5.22633">
        <ele>907</ele>
        <time>2023-03-21T12:44:28Z</time>
      </trkpt>
      <trkpt lat="45.01314" lon="5.22615">
        <ele>907</ele>
        <time>2023-03-21T12:44:41Z</time>
      </trkpt>
      <trkpt lat="45.01312" lon="5.22595">
        <ele>912</ele>
        <time>2023-03-21T12:44:54Z</time>
      </trkpt>
      <trkpt lat="45.0131" lon="5.22574">
        <ele>912</ele>
        <time>2023-03-21T12:45:11Z</time>
      </trkpt>
      <trkpt lat="45.01308" lon="5.22544">
        <ele>912</ele>
        <time>2023-03-21T12:45:30Z</time>
      </trkpt>
      <trkpt lat="45.01303" lon="5.22537">
        <ele>911</ele>
        <time>2023-03-21T12:45:42Z</time>
      </trkpt>
      <trkpt lat="45.01302" lon="5.22528">
        <ele>911</ele>
        <time>2023-03-21T12:45:48Z</time>
      </trkpt>
      <trkpt lat="45.01298" lon="5.22509">
        <ele>912</ele>
        <time>2023-03-21T12:46:01Z</time>
      </trkpt>
      <trkpt lat="45.01296" lon="5.22501">
        <ele>913</ele>
        <time>2023-03-21T12:46:08Z</time>
      </trkpt>
      <trkpt lat="45.01289" lon="5.22482">
        <ele>915</ele>
        <time>2023-03-21T12:46:24Z</time>
      </trkpt>
      <trkpt lat="45.01287" lon="5.22473">
        <ele>913</ele>
        <time>2023-03-21T12:46:30Z</time>
      </trkpt>
      <trkpt lat="45.01283" lon="5.22452">
        <ele>914</ele>
        <time>2023-03-21T12:46:45Z</time>
      </trkpt>
      <trkpt lat="45.01282" lon="5.22442">
        <ele>915</ele>
        <time>2023-03-21T12:46:51Z</time>
      </trkpt>
      <trkpt lat="45.01281" lon="5.22431">
        <ele>917</ele>
        <time>2023-03-21T12:46:57Z</time>
      </trkpt>
      <trkpt lat="45.01277" lon="5.22421">
        <ele>917</ele>
        <time>2023-03-21T12:47:07Z</time>
      </trkpt>
      <trkpt lat="45.01273" lon="5.22409">
        <ele>918</ele>
        <time>2023-03-21T12:47:17Z</time>
      </trkpt>
      <trkpt lat="45.01274" lon="5.22399">
        <ele>919</ele>
        <time>2023-03-21T12:47:23Z</time>
      </trkpt>
      <trkpt lat="45.0127" lon="5.22389">
        <ele>919</ele>
        <time>2023-03-21T12:47:30Z</time>
      </trkpt>
      <trkpt lat="45.01265" lon="5.2238">
        <ele>921</ele>
        <time>2023-03-21T12:47:38Z</time>
      </trkpt>
      <trkpt lat="45.01262" lon="5.2237">
        <ele>922</ele>
        <time>2023-03-21T12:47:46Z</time>
      </trkpt>
      <trkpt lat="45.01261" lon="5.22359">
        <ele>924</ele>
        <time>2023-03-21T12:47:54Z</time>
      </trkpt>
      <trkpt lat="45.01257" lon="5.22349">
        <ele>925</ele>
        <time>2023-03-21T12:48:01Z</time>
      </trkpt>
      <trkpt lat="45.01255" lon="5.22329">
        <ele>926</ele>
        <time>2023-03-21T12:48:15Z</time>
      </trkpt>
      <trkpt lat="45.01253" lon="5.22318">
        <ele>926</ele>
        <time>2023-03-21T12:48:20Z</time>
      </trkpt>
      <trkpt lat="45.0124" lon="5.22278">
        <ele>926</ele>
        <time>2023-03-21T12:48:52Z</time>
      </trkpt>
      <trkpt lat="45.01239" lon="5.22269">
        <ele>926</ele>
        <time>2023-03-21T12:48:59Z</time>
      </trkpt>
      <trkpt lat="45.01233" lon="5.22239">
        <ele>927</ele>
        <time>2023-03-21T12:49:22Z</time>
      </trkpt>
      <trkpt lat="45.01229" lon="5.2223">
        <ele>926</ele>
        <time>2023-03-21T12:49:30Z</time>
      </trkpt>
      <trkpt lat="45.01226" lon="5.22221">
        <ele>926</ele>
        <time>2023-03-21T12:49:37Z</time>
      </trkpt>
      <trkpt lat="45.01224" lon="5.2221">
        <ele>927</ele>
        <time>2023-03-21T12:49:45Z</time>
      </trkpt>
      <trkpt lat="45.01222" lon="5.22199">
        <ele>929</ele>
        <time>2023-03-21T12:49:55Z</time>
      </trkpt>
      <trkpt lat="45.01221" lon="5.22188">
        <ele>930</ele>
        <time>2023-03-21T12:50:00Z</time>
      </trkpt>
      <trkpt lat="45.01216" lon="5.22167">
        <ele>930</ele>
        <time>2023-03-21T12:50:15Z</time>
      </trkpt>
      <trkpt lat="45.01213" lon="5.22147">
        <ele>934</ele>
        <time>2023-03-21T12:50:29Z</time>
      </trkpt>
      <trkpt lat="45.01214" lon="5.22139">
        <ele>935</ele>
        <time>2023-03-21T12:50:34Z</time>
      </trkpt>
      <trkpt lat="45.0122" lon="5.22126">
        <ele>935</ele>
        <time>2023-03-21T12:50:46Z</time>
      </trkpt>
      <trkpt lat="45.01228" lon="5.22127">
        <ele>936</ele>
        <time>2023-03-21T12:51:11Z</time>
      </trkpt>
      <trkpt lat="45.01234" lon="5.22126">
        <ele>939</ele>
        <time>2023-03-21T12:51:19Z</time>
      </trkpt>
      <trkpt lat="45.01246" lon="5.22116">
        <ele>939</ele>
        <time>2023-03-21T12:51:34Z</time>
      </trkpt>
      <trkpt lat="45.01253" lon="5.2211">
        <ele>938</ele>
        <time>2023-03-21T12:51:41Z</time>
      </trkpt>
      <trkpt lat="45.01258" lon="5.22105">
        <ele>939</ele>
        <time>2023-03-21T12:51:48Z</time>
      </trkpt>
      <trkpt lat="45.01264" lon="5.22101">
        <ele>939</ele>
        <time>2023-03-21T12:51:54Z</time>
      </trkpt>
      <trkpt lat="45.01268" lon="5.22096">
        <ele>940</ele>
        <time>2023-03-21T12:52:01Z</time>
      </trkpt>
      <trkpt lat="45.0129" lon="5.22061">
        <ele>941</ele>
        <time>2023-03-21T12:52:38Z</time>
      </trkpt>
      <trkpt lat="45.01296" lon="5.22053">
        <ele>942</ele>
        <time>2023-03-21T12:52:45Z</time>
      </trkpt>
      <trkpt lat="45.01301" lon="5.22044">
        <ele>943</ele>
        <time>2023-03-21T12:52:51Z</time>
      </trkpt>
      <trkpt lat="45.01314" lon="5.22011">
        <ele>942</ele>
        <time>2023-03-21T12:53:16Z</time>
      </trkpt>
      <trkpt lat="45.01316" lon="5.22003">
        <ele>945</ele>
        <time>2023-03-21T12:53:26Z</time>
      </trkpt>
      <trkpt lat="45.01336" lon="5.2199">
        <ele>948</ele>
        <time>2023-03-21T12:53:49Z</time>
      </trkpt>
      <trkpt lat="45.01368" lon="5.21977">
        <ele>951</ele>
        <time>2023-03-21T12:54:20Z</time>
      </trkpt>
      <trkpt lat="45.01373" lon="5.21977">
        <ele>952</ele>
        <time>2023-03-21T12:54:28Z</time>
      </trkpt>
      <trkpt lat="45.01378" lon="5.21972">
        <ele>951</ele>
        <time>2023-03-21T12:54:43Z</time>
      </trkpt>
      <trkpt lat="45.01388" lon="5.2196">
        <ele>951</ele>
        <time>2023-03-21T12:54:57Z</time>
      </trkpt>
      <trkpt lat="45.01391" lon="5.21952">
        <ele>951</ele>
        <time>2023-03-21T12:55:04Z</time>
      </trkpt>
      <trkpt lat="45.01396" lon="5.21916">
        <ele>946</ele>
        <time>2023-03-21T12:55:30Z</time>
      </trkpt>
      <trkpt lat="45.01397" lon="5.21885">
        <ele>951</ele>
        <time>2023-03-21T12:55:51Z</time>
      </trkpt>
      <trkpt lat="45.01399" lon="5.21874">
        <ele>951</ele>
        <time>2023-03-21T12:55:58Z</time>
      </trkpt>
      <trkpt lat="45.01402" lon="5.21852">
        <ele>952</ele>
        <time>2023-03-21T12:56:14Z</time>
      </trkpt>
      <trkpt lat="45.01405" lon="5.21839">
        <ele>952</ele>
        <time>2023-03-21T12:56:25Z</time>
      </trkpt>
      <trkpt lat="45.01405" lon="5.21828">
        <ele>952</ele>
        <time>2023-03-21T12:56:33Z</time>
      </trkpt>
      <trkpt lat="45.01404" lon="5.21818">
        <ele>954</ele>
        <time>2023-03-21T12:56:55Z</time>
      </trkpt>
      <trkpt lat="45.01401" lon="5.2181">
        <ele>954</ele>
        <time>2023-03-21T12:57:05Z</time>
      </trkpt>
      <trkpt lat="45.01401" lon="5.21778">
        <ele>954</ele>
        <time>2023-03-21T12:57:25Z</time>
      </trkpt>
      <trkpt lat="45.01397" lon="5.21772">
        <ele>952</ele>
        <time>2023-03-21T12:57:31Z</time>
      </trkpt>
      <trkpt lat="45.01397" lon="5.21763">
        <ele>948</ele>
        <time>2023-03-21T12:57:38Z</time>
      </trkpt>
      <trkpt lat="45.01393" lon="5.21751">
        <ele>944</ele>
        <time>2023-03-21T12:57:46Z</time>
      </trkpt>
      <trkpt lat="45.01392" lon="5.21746">
        <ele>943</ele>
        <time>2023-03-21T12:57:49Z</time>
      </trkpt>
      <trkpt lat="45.01372" lon="5.21709">
        <ele>937</ele>
        <time>2023-03-21T12:58:19Z</time>
      </trkpt>
      <trkpt lat="45.01359" lon="5.21687">
        <ele>938</ele>
        <time>2023-03-21T12:58:37Z</time>
      </trkpt>
      <trkpt lat="45.01332" lon="5.21655">
        <ele>937</ele>
        <time>2023-03-21T12:59:09Z</time>
      </trkpt>
      <trkpt lat="45.01325" lon="5.21647">
        <ele>938</ele>
        <time>2023-03-21T12:59:17Z</time>
      </trkpt>
      <trkpt lat="45.01323" lon="5.21643">
        <ele>938</ele>
        <time>2023-03-21T12:59:21Z</time>
      </trkpt>
      <trkpt lat="45.0132" lon="5.21641">
        <ele>938</ele>
        <time>2023-03-21T12:59:26Z</time>
      </trkpt>
      <trkpt lat="45.01318" lon="5.21636">
        <ele>935</ele>
        <time>2023-03-21T13:01:38Z</time>
      </trkpt>
      <trkpt lat="45.01315" lon="5.21631">
        <ele>935</ele>
        <time>2023-03-21T13:01:43Z</time>
      </trkpt>
      <trkpt lat="45.01307" lon="5.21624">
        <ele>936</ele>
        <time>2023-03-21T13:01:52Z</time>
      </trkpt>
      <trkpt lat="45.01301" lon="5.21611">
        <ele>936</ele>
        <time>2023-03-21T13:02:02Z</time>
      </trkpt>
      <trkpt lat="45.01301" lon="5.21604">
        <ele>937</ele>
        <time>2023-03-21T13:02:06Z</time>
      </trkpt>
      <trkpt lat="45.013" lon="5.21597">
        <ele>938</ele>
        <time>2023-03-21T13:02:12Z</time>
      </trkpt>
      <trkpt lat="45.01296" lon="5.21583">
        <ele>939</ele>
        <time>2023-03-21T13:02:26Z</time>
      </trkpt>
      <trkpt lat="45.01288" lon="5.2158">
        <ele>938</ele>
        <time>2023-03-21T13:02:35Z</time>
      </trkpt>
      <trkpt lat="45.01276" lon="5.21575">
        <ele>938</ele>
        <time>2023-03-21T13:02:50Z</time>
      </trkpt>
      <trkpt lat="45.01272" lon="5.21574">
        <ele>938</ele>
        <time>2023-03-21T13:02:53Z</time>
      </trkpt>
      <trkpt lat="45.01256" lon="5.21572">
        <ele>934</ele>
        <time>2023-03-21T13:03:08Z</time>
      </trkpt>
      <trkpt lat="45.01247" lon="5.21565">
        <ele>935</ele>
        <time>2023-03-21T13:03:21Z</time>
      </trkpt>
      <trkpt lat="45.01228" lon="5.21554">
        <ele>935</ele>
        <time>2023-03-21T13:03:42Z</time>
      </trkpt>
      <trkpt lat="45.01203" lon="5.21532">
        <ele>937</ele>
        <time>2023-03-21T13:04:13Z</time>
      </trkpt>
      <trkpt lat="45.01177" lon="5.21514">
        <ele>939</ele>
        <time>2023-03-21T13:04:45Z</time>
      </trkpt>
      <trkpt lat="45.01168" lon="5.21504">
        <ele>940</ele>
        <time>2023-03-21T13:04:57Z</time>
      </trkpt>
      <trkpt lat="45.01164" lon="5.21501">
        <ele>938</ele>
        <time>2023-03-21T13:05:01Z</time>
      </trkpt>
      <trkpt lat="45.01141" lon="5.21483">
        <ele>942</ele>
        <time>2023-03-21T13:05:29Z</time>
      </trkpt>
      <trkpt lat="45.01132" lon="5.21476">
        <ele>944</ele>
        <time>2023-03-21T13:05:46Z</time>
      </trkpt>
      <trkpt lat="45.0113" lon="5.21474">
        <ele>943</ele>
        <time>2023-03-21T13:05:49Z</time>
      </trkpt>
      <trkpt lat="45.011" lon="5.21451">
        <ele>942</ele>
        <time>2023-03-21T13:06:23Z</time>
      </trkpt>
      <trkpt lat="45.01074" lon="5.21428">
        <ele>943</ele>
        <time>2023-03-21T13:06:53Z</time>
      </trkpt>
      <trkpt lat="45.01072" lon="5.21426">
        <ele>943</ele>
        <time>2023-03-21T13:06:56Z</time>
      </trkpt>
      <trkpt lat="45.01049" lon="5.21404">
        <ele>944</ele>
        <time>2023-03-21T13:07:26Z</time>
      </trkpt>
      <trkpt lat="45.01026" lon="5.21384">
        <ele>948</ele>
        <time>2023-03-21T13:07:56Z</time>
      </trkpt>
      <trkpt lat="45.01017" lon="5.21377">
        <ele>949</ele>
        <time>2023-03-21T13:08:07Z</time>
      </trkpt>
      <trkpt lat="45.01009" lon="5.21368">
        <ele>949</ele>
        <time>2023-03-21T13:08:18Z</time>
      </trkpt>
      <trkpt lat="45.00986" lon="5.21345">
        <ele>953</ele>
        <time>2023-03-21T13:08:49Z</time>
      </trkpt>
      <trkpt lat="45.00961" lon="5.21322">
        <ele>951</ele>
        <time>2023-03-21T13:09:20Z</time>
      </trkpt>
      <trkpt lat="45.00958" lon="5.21318">
        <ele>951</ele>
        <time>2023-03-21T13:09:26Z</time>
      </trkpt>
      <trkpt lat="45.00955" lon="5.21315">
        <ele>952</ele>
        <time>2023-03-21T13:09:30Z</time>
      </trkpt>
      <trkpt lat="45.00942" lon="5.21299">
        <ele>955</ele>
        <time>2023-03-21T13:09:49Z</time>
      </trkpt>
      <trkpt lat="45.0092" lon="5.21268">
        <ele>959</ele>
        <time>2023-03-21T13:10:22Z</time>
      </trkpt>
      <trkpt lat="45.00906" lon="5.21255">
        <ele>961</ele>
        <time>2023-03-21T13:10:40Z</time>
      </trkpt>
      <trkpt lat="45.00903" lon="5.21251">
        <ele>961</ele>
        <time>2023-03-21T13:10:44Z</time>
      </trkpt>
      <trkpt lat="45.00899" lon="5.21244">
        <ele>961</ele>
        <time>2023-03-21T13:10:51Z</time>
      </trkpt>
      <trkpt lat="45.00892" lon="5.21227">
        <ele>962</ele>
        <time>2023-03-21T13:11:04Z</time>
      </trkpt>
      <trkpt lat="45.00893" lon="5.21224">
        <ele>962</ele>
        <time>2023-03-21T13:11:07Z</time>
      </trkpt>
      <trkpt lat="45.0089" lon="5.2122">
        <ele>962</ele>
        <time>2023-03-21T13:11:14Z</time>
      </trkpt>
      <trkpt lat="45.00886" lon="5.21221">
        <ele>961</ele>
        <time>2023-03-21T13:11:33Z</time>
      </trkpt>
      <trkpt lat="45.00887" lon="5.21216">
        <ele>960</ele>
        <time>2023-03-21T13:12:13Z</time>
      </trkpt>
      <trkpt lat="45.00889" lon="5.21211">
        <ele>957</ele>
        <time>2023-03-21T13:12:39Z</time>
      </trkpt>
      <trkpt lat="45.00885" lon="5.21213">
        <ele>956</ele>
        <time>2023-03-21T13:13:23Z</time>
      </trkpt>
      <trkpt lat="45.00874" lon="5.21218">
        <ele>954</ele>
        <time>2023-03-21T13:13:35Z</time>
      </trkpt>
      <trkpt lat="45.00871" lon="5.21218">
        <ele>953</ele>
        <time>2023-03-21T13:13:38Z</time>
      </trkpt>
      <trkpt lat="45.00868" lon="5.21218">
        <ele>952</ele>
        <time>2023-03-21T13:13:42Z</time>
      </trkpt>
      <trkpt lat="45.00865" lon="5.21219">
        <ele>952</ele>
        <time>2023-03-21T13:13:45Z</time>
      </trkpt>
      <trkpt lat="45.00862" lon="5.21221">
        <ele>952</ele>
        <time>2023-03-21T13:13:49Z</time>
      </trkpt>
      <trkpt lat="45.00835" lon="5.21226">
        <ele>950</ele>
        <time>2023-03-21T13:14:18Z</time>
      </trkpt>
      <trkpt lat="45.00826" lon="5.21231">
        <ele>947</ele>
        <time>2023-03-21T13:14:29Z</time>
      </trkpt>
      <trkpt lat="45.00825" lon="5.21238">
        <ele>945</ele>
        <time>2023-03-21T13:14:35Z</time>
      </trkpt>
      <trkpt lat="45.00824" lon="5.21245">
        <ele>945</ele>
        <time>2023-03-21T13:14:41Z</time>
      </trkpt>
      <trkpt lat="45.00819" lon="5.21259">
        <ele>942</ele>
        <time>2023-03-21T13:14:57Z</time>
      </trkpt>
      <trkpt lat="45.00819" lon="5.21275">
        <ele>938</ele>
        <time>2023-03-21T13:15:13Z</time>
      </trkpt>
      <trkpt lat="45.00814" lon="5.21294">
        <ele>934</ele>
        <time>2023-03-21T13:15:32Z</time>
      </trkpt>
      <trkpt lat="45.00805" lon="5.21301">
        <ele>935</ele>
        <time>2023-03-21T13:15:43Z</time>
      </trkpt>
      <trkpt lat="45.00797" lon="5.21305">
        <ele>935</ele>
        <time>2023-03-21T13:15:49Z</time>
      </trkpt>
      <trkpt lat="45.00781" lon="5.21313">
        <ele>935</ele>
        <time>2023-03-21T13:16:09Z</time>
      </trkpt>
      <trkpt lat="45.00766" lon="5.21314">
        <ele>934</ele>
        <time>2023-03-21T13:16:22Z</time>
      </trkpt>
      <trkpt lat="45.00762" lon="5.2132">
        <ele>932</ele>
        <time>2023-03-21T13:16:30Z</time>
      </trkpt>
      <trkpt lat="45.00748" lon="5.21329">
        <ele>928</ele>
        <time>2023-03-21T13:16:48Z</time>
      </trkpt>
      <trkpt lat="45.00732" lon="5.21337">
        <ele>925</ele>
        <time>2023-03-21T13:17:10Z</time>
      </trkpt>
      <trkpt lat="45.00714" lon="5.2135">
        <ele>925</ele>
        <time>2023-03-21T13:17:32Z</time>
      </trkpt>
      <trkpt lat="45.00696" lon="5.21354">
        <ele>920</ele>
        <time>2023-03-21T13:17:52Z</time>
      </trkpt>
      <trkpt lat="45.00675" lon="5.21369">
        <ele>912</ele>
        <time>2023-03-21T13:18:18Z</time>
      </trkpt>
      <trkpt lat="45.00669" lon="5.21373">
        <ele>910</ele>
        <time>2023-03-21T13:18:26Z</time>
      </trkpt>
      <trkpt lat="45.00663" lon="5.21371">
        <ele>907</ele>
        <time>2023-03-21T13:18:33Z</time>
      </trkpt>
      <trkpt lat="45.00664" lon="5.21363">
        <ele>905</ele>
        <time>2023-03-21T13:18:38Z</time>
      </trkpt>
      <trkpt lat="45.0067" lon="5.21357">
        <ele>903</ele>
        <time>2023-03-21T13:18:45Z</time>
      </trkpt>
      <trkpt lat="45.00673" lon="5.21349">
        <ele>902</ele>
        <time>2023-03-21T13:18:51Z</time>
      </trkpt>
      <trkpt lat="45.00673" lon="5.21339">
        <ele>901</ele>
        <time>2023-03-21T13:18:58Z</time>
      </trkpt>
      <trkpt lat="45.00689" lon="5.21314">
        <ele>899</ele>
        <time>2023-03-21T13:19:26Z</time>
      </trkpt>
      <trkpt lat="45.00692" lon="5.21309">
        <ele>899</ele>
        <time>2023-03-21T13:19:32Z</time>
      </trkpt>
      <trkpt lat="45.00695" lon="5.21303">
        <ele>898</ele>
        <time>2023-03-21T13:19:38Z</time>
      </trkpt>
      <trkpt lat="45.00699" lon="5.21297">
        <ele>897</ele>
        <time>2023-03-21T13:19:43Z</time>
      </trkpt>
      <trkpt lat="45.00703" lon="5.21287">
        <ele>896</ele>
        <time>2023-03-21T13:19:51Z</time>
      </trkpt>
      <trkpt lat="45.00711" lon="5.2127">
        <ele>896</ele>
        <time>2023-03-21T13:20:09Z</time>
      </trkpt>
      <trkpt lat="45.00715" lon="5.21262">
        <ele>893</ele>
        <time>2023-03-21T13:20:14Z</time>
      </trkpt>
      <trkpt lat="45.0072" lon="5.21258">
        <ele>893</ele>
        <time>2023-03-21T13:20:22Z</time>
      </trkpt>
      <trkpt lat="45.00719" lon="5.21256">
        <ele>887</ele>
        <time>2023-03-21T13:20:45Z</time>
      </trkpt>
      <trkpt lat="45.00714" lon="5.21261">
        <ele>885</ele>
        <time>2023-03-21T13:20:53Z</time>
      </trkpt>
      <trkpt lat="45.00703" lon="5.21267">
        <ele>881</ele>
        <time>2023-03-21T13:21:07Z</time>
      </trkpt>
      <trkpt lat="45.00696" lon="5.2127">
        <ele>879</ele>
        <time>2023-03-21T13:21:14Z</time>
      </trkpt>
      <trkpt lat="45.0069" lon="5.21277">
        <ele>879</ele>
        <time>2023-03-21T13:21:24Z</time>
      </trkpt>
      <trkpt lat="45.00683" lon="5.21281">
        <ele>879</ele>
        <time>2023-03-21T13:21:32Z</time>
      </trkpt>
      <trkpt lat="45.00675" lon="5.21283">
        <ele>879</ele>
        <time>2023-03-21T13:21:39Z</time>
      </trkpt>
      <trkpt lat="45.00669" lon="5.21287">
        <ele>876</ele>
        <time>2023-03-21T13:21:46Z</time>
      </trkpt>
      <trkpt lat="45.00662" lon="5.21291">
        <ele>876</ele>
        <time>2023-03-21T13:21:54Z</time>
      </trkpt>
      <trkpt lat="45.00655" lon="5.21297">
        <ele>873</ele>
        <time>2023-03-21T13:22:02Z</time>
      </trkpt>
      <trkpt lat="45.00648" lon="5.213">
        <ele>873</ele>
        <time>2023-03-21T13:22:08Z</time>
      </trkpt>
      <trkpt lat="45.00641" lon="5.21299">
        <ele>872</ele>
        <time>2023-03-21T13:22:15Z</time>
      </trkpt>
      <trkpt lat="45.00625" lon="5.21298">
        <ele>872</ele>
        <time>2023-03-21T13:22:32Z</time>
      </trkpt>
      <trkpt lat="45.00617" lon="5.21298">
        <ele>872</ele>
        <time>2023-03-21T13:22:41Z</time>
      </trkpt>
      <trkpt lat="45.006" lon="5.213">
        <ele>871</ele>
        <time>2023-03-21T13:23:03Z</time>
      </trkpt>
      <trkpt lat="45.00592" lon="5.21298">
        <ele>868</ele>
        <time>2023-03-21T13:23:12Z</time>
      </trkpt>
      <trkpt lat="45.00583" lon="5.21298">
        <ele>867</ele>
        <time>2023-03-21T13:23:22Z</time>
      </trkpt>
      <trkpt lat="45.00576" lon="5.21302">
        <ele>863</ele>
        <time>2023-03-21T13:23:29Z</time>
      </trkpt>
      <trkpt lat="45.00571" lon="5.21306">
        <ele>860</ele>
        <time>2023-03-21T13:23:36Z</time>
      </trkpt>
      <trkpt lat="45.00557" lon="5.21309">
        <ele>858</ele>
        <time>2023-03-21T13:23:48Z</time>
      </trkpt>
      <trkpt lat="45.00552" lon="5.21311">
        <ele>858</ele>
        <time>2023-03-21T13:23:55Z</time>
      </trkpt>
      <trkpt lat="45.00545" lon="5.2131">
        <ele>858</ele>
        <time>2023-03-21T13:24:02Z</time>
      </trkpt>
      <trkpt lat="45.00537" lon="5.2131">
        <ele>855</ele>
        <time>2023-03-21T13:24:10Z</time>
      </trkpt>
      <trkpt lat="45.00528" lon="5.21306">
        <ele>853</ele>
        <time>2023-03-21T13:24:18Z</time>
      </trkpt>
      <trkpt lat="45.00522" lon="5.21303">
        <ele>851</ele>
        <time>2023-03-21T13:24:25Z</time>
      </trkpt>
      <trkpt lat="45.00515" lon="5.21298">
        <ele>849</ele>
        <time>2023-03-21T13:24:32Z</time>
      </trkpt>
      <trkpt lat="45.00509" lon="5.21296">
        <ele>847</ele>
        <time>2023-03-21T13:24:39Z</time>
      </trkpt>
      <trkpt lat="45.00501" lon="5.21291">
        <ele>844</ele>
        <time>2023-03-21T13:24:47Z</time>
      </trkpt>
      <trkpt lat="45.00497" lon="5.21284">
        <ele>841</ele>
        <time>2023-03-21T13:24:54Z</time>
      </trkpt>
      <trkpt lat="45.00489" lon="5.21256">
        <ele>838</ele>
        <time>2023-03-21T13:25:18Z</time>
      </trkpt>
      <trkpt lat="45.00483" lon="5.21247">
        <ele>837</ele>
        <time>2023-03-21T13:25:25Z</time>
      </trkpt>
      <trkpt lat="45.00472" lon="5.21242">
        <ele>834</ele>
        <time>2023-03-21T13:25:34Z</time>
      </trkpt>
      <trkpt lat="45.00466" lon="5.21237">
        <ele>832</ele>
        <time>2023-03-21T13:25:40Z</time>
      </trkpt>
      <trkpt lat="45.00461" lon="5.21234">
        <ele>833</ele>
        <time>2023-03-21T13:25:49Z</time>
      </trkpt>
      <trkpt lat="45.00462" lon="5.21225">
        <ele>835</ele>
        <time>2023-03-21T13:26:33Z</time>
      </trkpt>
      <trkpt lat="45.00467" lon="5.21221">
        <ele>834</ele>
        <time>2023-03-21T13:26:39Z</time>
      </trkpt>
      <trkpt lat="45.00474" lon="5.21223">
        <ele>834</ele>
        <time>2023-03-21T13:26:46Z</time>
      </trkpt>
      <trkpt lat="45.0048" lon="5.21224">
        <ele>833</ele>
        <time>2023-03-21T13:26:55Z</time>
      </trkpt>
      <trkpt lat="45.00486" lon="5.21221">
        <ele>832</ele>
        <time>2023-03-21T13:27:02Z</time>
      </trkpt>
      <trkpt lat="45.00499" lon="5.21228">
        <ele>829</ele>
        <time>2023-03-21T13:27:19Z</time>
      </trkpt>
      <trkpt lat="45.00507" lon="5.21233">
        <ele>830</ele>
        <time>2023-03-21T13:27:26Z</time>
      </trkpt>
      <trkpt lat="45.00512" lon="5.21235">
        <ele>830</ele>
        <time>2023-03-21T13:27:33Z</time>
      </trkpt>
      <trkpt lat="45.00517" lon="5.21232">
        <ele>830</ele>
        <time>2023-03-21T13:27:41Z</time>
      </trkpt>
      <trkpt lat="45.00522" lon="5.21228">
        <ele>831</ele>
        <time>2023-03-21T13:27:48Z</time>
      </trkpt>
      <trkpt lat="45.00534" lon="5.21228">
        <ele>830</ele>
        <time>2023-03-21T13:28:05Z</time>
      </trkpt>
      <trkpt lat="45.00556" lon="5.21215">
        <ele>831</ele>
        <time>2023-03-21T13:28:33Z</time>
      </trkpt>
      <trkpt lat="45.00564" lon="5.21206">
        <ele>831</ele>
        <time>2023-03-21T13:28:45Z</time>
      </trkpt>
      <trkpt lat="45.00568" lon="5.21201">
        <ele>831</ele>
        <time>2023-03-21T13:28:51Z</time>
      </trkpt>
      <trkpt lat="45.00574" lon="5.21198">
        <ele>830</ele>
        <time>2023-03-21T13:28:56Z</time>
      </trkpt>
      <trkpt lat="45.00589" lon="5.21181">
        <ele>829</ele>
        <time>2023-03-21T13:29:17Z</time>
      </trkpt>
      <trkpt lat="45.00598" lon="5.21166">
        <ele>828</ele>
        <time>2023-03-21T13:29:32Z</time>
      </trkpt>
      <trkpt lat="45.00601" lon="5.21159">
        <ele>826</ele>
        <time>2023-03-21T13:29:37Z</time>
      </trkpt>
      <trkpt lat="45.00598" lon="5.21157">
        <ele>824</ele>
        <time>2023-03-21T13:29:43Z</time>
      </trkpt>
      <trkpt lat="45.00587" lon="5.21166">
        <ele>816</ele>
        <time>2023-03-21T13:29:59Z</time>
      </trkpt>
      <trkpt lat="45.00581" lon="5.2117">
        <ele>815</ele>
        <time>2023-03-21T13:30:05Z</time>
      </trkpt>
      <trkpt lat="45.00554" lon="5.21188">
        <ele>809</ele>
        <time>2023-03-21T13:30:33Z</time>
      </trkpt>
      <trkpt lat="45.00549" lon="5.21189">
        <ele>807</ele>
        <time>2023-03-21T13:30:37Z</time>
      </trkpt>
      <trkpt lat="45.00544" lon="5.21188">
        <ele>805</ele>
        <time>2023-03-21T13:30:42Z</time>
      </trkpt>
      <trkpt lat="45.00539" lon="5.21188">
        <ele>802</ele>
        <time>2023-03-21T13:30:46Z</time>
      </trkpt>
      <trkpt lat="45.00535" lon="5.21186">
        <ele>800</ele>
        <time>2023-03-21T13:30:51Z</time>
      </trkpt>
      <trkpt lat="45.00518" lon="5.2117">
        <ele>795</ele>
        <time>2023-03-21T13:31:13Z</time>
      </trkpt>
      <trkpt lat="45.00504" lon="5.21158">
        <ele>793</ele>
        <time>2023-03-21T13:31:30Z</time>
      </trkpt>
      <trkpt lat="45.00499" lon="5.21155">
        <ele>792</ele>
        <time>2023-03-21T13:31:37Z</time>
      </trkpt>
      <trkpt lat="45.00493" lon="5.21149">
        <ele>789</ele>
        <time>2023-03-21T13:31:45Z</time>
      </trkpt>
      <trkpt lat="45.00483" lon="5.21136">
        <ele>789</ele>
        <time>2023-03-21T13:32:02Z</time>
      </trkpt>
      <trkpt lat="45.00477" lon="5.21131">
        <ele>788</ele>
        <time>2023-03-21T13:32:10Z</time>
      </trkpt>
      <trkpt lat="45.00466" lon="5.21123">
        <ele>784</ele>
        <time>2023-03-21T13:32:23Z</time>
      </trkpt>
      <trkpt lat="45.00463" lon="5.21117">
        <ele>782</ele>
        <time>2023-03-21T13:32:31Z</time>
      </trkpt>
      <trkpt lat="45.0045" lon="5.21099">
        <ele>777</ele>
        <time>2023-03-21T13:32:51Z</time>
      </trkpt>
      <trkpt lat="45.0045" lon="5.21088">
        <ele>776</ele>
        <time>2023-03-21T13:32:57Z</time>
      </trkpt>
      <trkpt lat="45.00453" lon="5.2108">
        <ele>775</ele>
        <time>2023-03-21T13:33:02Z</time>
      </trkpt>
      <trkpt lat="45.00458" lon="5.21075">
        <ele>774</ele>
        <time>2023-03-21T13:33:07Z</time>
      </trkpt>
      <trkpt lat="45.00462" lon="5.21077">
        <ele>774</ele>
        <time>2023-03-21T13:33:12Z</time>
      </trkpt>
      <trkpt lat="45.00484" lon="5.21071">
        <ele>772</ele>
        <time>2023-03-21T13:33:33Z</time>
      </trkpt>
      <trkpt lat="45.00489" lon="5.2107">
        <ele>771</ele>
        <time>2023-03-21T13:33:38Z</time>
      </trkpt>
      <trkpt lat="45.00494" lon="5.21063">
        <ele>770</ele>
        <time>2023-03-21T13:33:47Z</time>
      </trkpt>
      <trkpt lat="45.00499" lon="5.21058">
        <ele>770</ele>
        <time>2023-03-21T13:33:53Z</time>
      </trkpt>
      <trkpt lat="45.00494" lon="5.21054">
        <ele>769</ele>
        <time>2023-03-21T13:34:14Z</time>
      </trkpt>
      <trkpt lat="45.00489" lon="5.21056">
        <ele>766</ele>
        <time>2023-03-21T13:34:21Z</time>
      </trkpt>
      <trkpt lat="45.00484" lon="5.21053">
        <ele>765</ele>
        <time>2023-03-21T13:34:29Z</time>
      </trkpt>
      <trkpt lat="45.0048" lon="5.21049">
        <ele>763</ele>
        <time>2023-03-21T13:34:36Z</time>
      </trkpt>
      <trkpt lat="45.00461" lon="5.21038">
        <ele>758</ele>
        <time>2023-03-21T13:34:57Z</time>
      </trkpt>
      <trkpt lat="45.00457" lon="5.21033">
        <ele>757</ele>
        <time>2023-03-21T13:35:02Z</time>
      </trkpt>
      <trkpt lat="45.00443" lon="5.21025">
        <ele>758</ele>
        <time>2023-03-21T13:35:15Z</time>
      </trkpt>
      <trkpt lat="45.00435" lon="5.21019">
        <ele>755</ele>
        <time>2023-03-21T13:35:23Z</time>
      </trkpt>
      <trkpt lat="45.00432" lon="5.21015">
        <ele>754</ele>
        <time>2023-03-21T13:35:28Z</time>
      </trkpt>
      <trkpt lat="45.00428" lon="5.21011">
        <ele>753</ele>
        <time>2023-03-21T13:35:34Z</time>
      </trkpt>
      <trkpt lat="45.00416" lon="5.20997">
        <ele>749</ele>
        <time>2023-03-21T13:35:48Z</time>
      </trkpt>
      <trkpt lat="45.00412" lon="5.20992">
        <ele>748</ele>
        <time>2023-03-21T13:35:53Z</time>
      </trkpt>
      <trkpt lat="45.00409" lon="5.20987">
        <ele>748</ele>
        <time>2023-03-21T13:35:58Z</time>
      </trkpt>
      <trkpt lat="45.00405" lon="5.20983">
        <ele>746</ele>
        <time>2023-03-21T13:36:03Z</time>
      </trkpt>
      <trkpt lat="45.00401" lon="5.20979">
        <ele>746</ele>
        <time>2023-03-21T13:36:08Z</time>
      </trkpt>
      <trkpt lat="45.00398" lon="5.20973">
        <ele>745</ele>
        <time>2023-03-21T13:36:13Z</time>
      </trkpt>
      <trkpt lat="45.00394" lon="5.2097">
        <ele>744</ele>
        <time>2023-03-21T13:36:18Z</time>
      </trkpt>
      <trkpt lat="45.00381" lon="5.20937">
        <ele>741</ele>
        <time>2023-03-21T13:36:49Z</time>
      </trkpt>
      <trkpt lat="45.00377" lon="5.20933">
        <ele>739</ele>
        <time>2023-03-21T13:36:55Z</time>
      </trkpt>
      <trkpt lat="45.00373" lon="5.20929">
        <ele>738</ele>
        <time>2023-03-21T13:37:00Z</time>
      </trkpt>
      <trkpt lat="45.00371" lon="5.20923">
        <ele>736</ele>
        <time>2023-03-21T13:37:04Z</time>
      </trkpt>
      <trkpt lat="45.00355" lon="5.20906">
        <ele>732</ele>
        <time>2023-03-21T13:37:24Z</time>
      </trkpt>
      <trkpt lat="45.0035" lon="5.209">
        <ele>732</ele>
        <time>2023-03-21T13:37:31Z</time>
      </trkpt>
      <trkpt lat="45.00343" lon="5.20897">
        <ele>733</ele>
        <time>2023-03-21T13:37:40Z</time>
      </trkpt>
      <trkpt lat="45.0033" lon="5.20893">
        <ele>734</ele>
        <time>2023-03-21T13:37:52Z</time>
      </trkpt>
      <trkpt lat="45.00329" lon="5.20896">
        <ele>735</ele>
        <time>2023-03-21T13:38:32Z</time>
      </trkpt>
      <trkpt lat="45.0032" lon="5.20898">
        <ele>733</ele>
        <time>2023-03-21T13:39:01Z</time>
      </trkpt>
      <trkpt lat="45.00318" lon="5.20889">
        <ele>733</ele>
        <time>2023-03-21T13:39:10Z</time>
      </trkpt>
      <trkpt lat="45.00318" lon="5.20883">
        <ele>731</ele>
        <time>2023-03-21T13:39:16Z</time>
      </trkpt>
      <trkpt lat="45.00323" lon="5.20872">
        <ele>729</ele>
        <time>2023-03-21T13:39:23Z</time>
      </trkpt>
      <trkpt lat="45.0033" lon="5.20864">
        <ele>727</ele>
        <time>2023-03-21T13:39:32Z</time>
      </trkpt>
      <trkpt lat="45.00339" lon="5.20839">
        <ele>720</ele>
        <time>2023-03-21T13:39:52Z</time>
      </trkpt>
      <trkpt lat="45.00349" lon="5.20822">
        <ele>719</ele>
        <time>2023-03-21T13:40:05Z</time>
      </trkpt>
      <trkpt lat="45.00359" lon="5.20819">
        <ele>718</ele>
        <time>2023-03-21T13:40:15Z</time>
      </trkpt>
      <trkpt lat="45.00359" lon="5.20817">
        <ele>716</ele>
        <time>2023-03-21T13:40:33Z</time>
      </trkpt>
      <trkpt lat="45.00357" lon="5.20812">
        <ele>715</ele>
        <time>2023-03-21T13:40:38Z</time>
      </trkpt>
      <trkpt lat="45.00354" lon="5.20803">
        <ele>711</ele>
        <time>2023-03-21T13:40:47Z</time>
      </trkpt>
      <trkpt lat="45.00351" lon="5.2079">
        <ele>708</ele>
        <time>2023-03-21T13:40:58Z</time>
      </trkpt>
      <trkpt lat="45.0035" lon="5.20783">
        <ele>707</ele>
        <time>2023-03-21T13:41:03Z</time>
      </trkpt>
      <trkpt lat="45.00347" lon="5.20761">
        <ele>704</ele>
        <time>2023-03-21T13:41:23Z</time>
      </trkpt>
      <trkpt lat="45.00346" lon="5.20742">
        <ele>701</ele>
        <time>2023-03-21T13:41:40Z</time>
      </trkpt>
      <trkpt lat="45.00341" lon="5.20734">
        <ele>696</ele>
        <time>2023-03-21T13:41:51Z</time>
      </trkpt>
      <trkpt lat="45.00338" lon="5.20731">
        <ele>695</ele>
        <time>2023-03-21T13:41:56Z</time>
      </trkpt>
      <trkpt lat="45.00335" lon="5.20726">
        <ele>693</ele>
        <time>2023-03-21T13:42:01Z</time>
      </trkpt>
      <trkpt lat="45.00334" lon="5.20721">
        <ele>692</ele>
        <time>2023-03-21T13:42:05Z</time>
      </trkpt>
      <trkpt lat="45.00333" lon="5.20711">
        <ele>690</ele>
        <time>2023-03-21T13:42:15Z</time>
      </trkpt>
      <trkpt lat="45.00332" lon="5.20677">
        <ele>689</ele>
        <time>2023-03-21T13:42:43Z</time>
      </trkpt>
      <trkpt lat="45.00333" lon="5.20669">
        <ele>689</ele>
        <time>2023-03-21T13:42:49Z</time>
      </trkpt>
      <trkpt lat="45.00331" lon="5.20647">
        <ele>689</ele>
        <time>2023-03-21T13:43:05Z</time>
      </trkpt>
      <trkpt lat="45.00332" lon="5.20643">
        <ele>690</ele>
        <time>2023-03-21T13:43:15Z</time>
      </trkpt>
      <trkpt lat="45.00329" lon="5.20629">
        <ele>689</ele>
        <time>2023-03-21T13:43:27Z</time>
      </trkpt>
      <trkpt lat="45.00327" lon="5.20614">
        <ele>687</ele>
        <time>2023-03-21T13:43:38Z</time>
      </trkpt>
      <trkpt lat="45.00325" lon="5.20607">
        <ele>686</ele>
        <time>2023-03-21T13:43:44Z</time>
      </trkpt>
      <trkpt lat="45.00324" lon="5.206">
        <ele>686</ele>
        <time>2023-03-21T13:43:50Z</time>
      </trkpt>
      <trkpt lat="45.00324" lon="5.20593">
        <ele>686</ele>
        <time>2023-03-21T13:43:54Z</time>
      </trkpt>
      <trkpt lat="45.00321" lon="5.20586">
        <ele>685</ele>
        <time>2023-03-21T13:43:59Z</time>
      </trkpt>
      <trkpt lat="45.00319" lon="5.20578">
        <ele>684</ele>
        <time>2023-03-21T13:44:05Z</time>
      </trkpt>
      <trkpt lat="45.00318" lon="5.20571">
        <ele>683</ele>
        <time>2023-03-21T13:44:11Z</time>
      </trkpt>
      <trkpt lat="45.00316" lon="5.20564">
        <ele>684</ele>
        <time>2023-03-21T13:44:17Z</time>
      </trkpt>
      <trkpt lat="45.00315" lon="5.20556">
        <ele>683</ele>
        <time>2023-03-21T13:44:23Z</time>
      </trkpt>
      <trkpt lat="45.00314" lon="5.20539">
        <ele>684</ele>
        <time>2023-03-21T13:44:36Z</time>
      </trkpt>
      <trkpt lat="45.00315" lon="5.20529">
        <ele>684</ele>
        <time>2023-03-21T13:44:43Z</time>
      </trkpt>
      <trkpt lat="45.00315" lon="5.2052">
        <ele>684</ele>
        <time>2023-03-21T13:44:50Z</time>
      </trkpt>
      <trkpt lat="45.00317" lon="5.20512">
        <ele>683</ele>
        <time>2023-03-21T13:44:56Z</time>
      </trkpt>
      <trkpt lat="45.00314" lon="5.20492">
        <ele>680</ele>
        <time>2023-03-21T13:45:10Z</time>
      </trkpt>
      <trkpt lat="45.00313" lon="5.20458">
        <ele>675</ele>
        <time>2023-03-21T13:45:34Z</time>
      </trkpt>
      <trkpt lat="45.00311" lon="5.20449">
        <ele>673</ele>
        <time>2023-03-21T13:45:41Z</time>
      </trkpt>
      <trkpt lat="45.00308" lon="5.20443">
        <ele>672</ele>
        <time>2023-03-21T13:45:45Z</time>
      </trkpt>
      <trkpt lat="45.00305" lon="5.20427">
        <ele>669</ele>
        <time>2023-03-21T13:45:55Z</time>
      </trkpt>
      <trkpt lat="45.00305" lon="5.20419">
        <ele>668</ele>
        <time>2023-03-21T13:46:01Z</time>
      </trkpt>
      <trkpt lat="45.00303" lon="5.20409">
        <ele>667</ele>
        <time>2023-03-21T13:46:08Z</time>
      </trkpt>
      <trkpt lat="45.00304" lon="5.20391">
        <ele>665</ele>
        <time>2023-03-21T13:46:20Z</time>
      </trkpt>
      <trkpt lat="45.00301" lon="5.20382">
        <ele>664</ele>
        <time>2023-03-21T13:46:27Z</time>
      </trkpt>
      <trkpt lat="45.00298" lon="5.20374">
        <ele>663</ele>
        <time>2023-03-21T13:46:33Z</time>
      </trkpt>
      <trkpt lat="45.00297" lon="5.20365">
        <ele>661</ele>
        <time>2023-03-21T13:46:39Z</time>
      </trkpt>
      <trkpt lat="45.00291" lon="5.20342">
        <ele>658</ele>
        <time>2023-03-21T13:46:55Z</time>
      </trkpt>
      <trkpt lat="45.00275" lon="5.20297">
        <ele>651</ele>
        <time>2023-03-21T13:47:26Z</time>
      </trkpt>
      <trkpt lat="45.00273" lon="5.20289">
        <ele>651</ele>
        <time>2023-03-21T13:47:31Z</time>
      </trkpt>
      <trkpt lat="45.00262" lon="5.20258">
        <ele>651</ele>
        <time>2023-03-21T13:47:52Z</time>
      </trkpt>
      <trkpt lat="45.0024" lon="5.20222">
        <ele>649</ele>
        <time>2023-03-21T13:48:23Z</time>
      </trkpt>
      <trkpt lat="45.00223" lon="5.2019">
        <ele>646</ele>
        <time>2023-03-21T13:48:49Z</time>
      </trkpt>
      <trkpt lat="45.0021" lon="5.20146">
        <ele>646</ele>
        <time>2023-03-21T13:49:22Z</time>
      </trkpt>
      <trkpt lat="45.00208" lon="5.20137">
        <ele>646</ele>
        <time>2023-03-21T13:49:28Z</time>
      </trkpt>
      <trkpt lat="45.00202" lon="5.20119">
        <ele>644</ele>
        <time>2023-03-21T13:49:38Z</time>
      </trkpt>
      <trkpt lat="45.00197" lon="5.20111">
        <ele>642</ele>
        <time>2023-03-21T13:49:45Z</time>
      </trkpt>
      <trkpt lat="45.00193" lon="5.20103">
        <ele>641</ele>
        <time>2023-03-21T13:49:52Z</time>
      </trkpt>
      <trkpt lat="45.00188" lon="5.20096">
        <ele>639</ele>
        <time>2023-03-21T13:49:59Z</time>
      </trkpt>
      <trkpt lat="45.00183" lon="5.2009">
        <ele>639</ele>
        <time>2023-03-21T13:50:05Z</time>
      </trkpt>
      <trkpt lat="45.00177" lon="5.2007">
        <ele>640</ele>
        <time>2023-03-21T13:50:17Z</time>
      </trkpt>
      <trkpt lat="45.00155" lon="5.20029">
        <ele>635</ele>
        <time>2023-03-21T13:50:48Z</time>
      </trkpt>
      <trkpt lat="45.00127" lon="5.20004">
        <ele>632</ele>
        <time>2023-03-21T13:51:19Z</time>
      </trkpt>
      <trkpt lat="45.00122" lon="5.19998">
        <ele>633</ele>
        <time>2023-03-21T13:51:26Z</time>
      </trkpt>
      <trkpt lat="45.00096" lon="5.19978">
        <ele>629</ele>
        <time>2023-03-21T13:51:53Z</time>
      </trkpt>
      <trkpt lat="45.00074" lon="5.19964">
        <ele>625</ele>
        <time>2023-03-21T13:52:15Z</time>
      </trkpt>
      <trkpt lat="45.00047" lon="5.19959">
        <ele>624</ele>
        <time>2023-03-21T13:52:36Z</time>
      </trkpt>
      <trkpt lat="45.00018" lon="5.19941">
        <ele>622</ele>
        <time>2023-03-21T13:53:05Z</time>
      </trkpt>
      <trkpt lat="45.00005" lon="5.1994">
        <ele>622</ele>
        <time>2023-03-21T13:53:18Z</time>
      </trkpt>
      <trkpt lat="44.99997" lon="5.1994">
        <ele>619</ele>
        <time>2023-03-21T13:53:26Z</time>
      </trkpt>
      <trkpt lat="44.99988" lon="5.1994">
        <ele>618</ele>
        <time>2023-03-21T13:53:34Z</time>
      </trkpt>
      <trkpt lat="44.99972" lon="5.19944">
        <ele>616</ele>
        <time>2023-03-21T13:53:46Z</time>
      </trkpt>
      <trkpt lat="44.99964" lon="5.19943">
        <ele>616</ele>
        <time>2023-03-21T13:53:54Z</time>
      </trkpt>
      <trkpt lat="44.99945" lon="5.19936">
        <ele>614</ele>
        <time>2023-03-21T13:54:13Z</time>
      </trkpt>
      <trkpt lat="44.99929" lon="5.19932">
        <ele>613</ele>
        <time>2023-03-21T13:54:27Z</time>
      </trkpt>
      <trkpt lat="44.99921" lon="5.19928">
        <ele>611</ele>
        <time>2023-03-21T13:54:35Z</time>
      </trkpt>
      <trkpt lat="44.99914" lon="5.19928">
        <ele>608</ele>
        <time>2023-03-21T13:54:42Z</time>
      </trkpt>
      <trkpt lat="44.99905" lon="5.19931">
        <ele>608</ele>
        <time>2023-03-21T13:54:51Z</time>
      </trkpt>
      <trkpt lat="44.99899" lon="5.19935">
        <ele>606</ele>
        <time>2023-03-21T13:54:58Z</time>
      </trkpt>
      <trkpt lat="44.9989" lon="5.19937">
        <ele>606</ele>
        <time>2023-03-21T13:55:04Z</time>
      </trkpt>
      <trkpt lat="44.99882" lon="5.19942">
        <ele>603</ele>
        <time>2023-03-21T13:55:13Z</time>
      </trkpt>
      <trkpt lat="44.99873" lon="5.19942">
        <ele>602</ele>
        <time>2023-03-21T13:55:20Z</time>
      </trkpt>
      <trkpt lat="44.99858" lon="5.19945">
        <ele>599</ele>
        <time>2023-03-21T13:55:34Z</time>
      </trkpt>
      <trkpt lat="44.99851" lon="5.19942">
        <ele>598</ele>
        <time>2023-03-21T13:55:42Z</time>
      </trkpt>
      <trkpt lat="44.99836" lon="5.19935">
        <ele>595</ele>
        <time>2023-03-21T13:55:56Z</time>
      </trkpt>
      <trkpt lat="44.99814" lon="5.19925">
        <ele>593</ele>
        <time>2023-03-21T13:56:17Z</time>
      </trkpt>
      <trkpt lat="44.99805" lon="5.19921">
        <ele>592</ele>
        <time>2023-03-21T13:56:25Z</time>
      </trkpt>
      <trkpt lat="44.9979" lon="5.19914">
        <ele>591</ele>
        <time>2023-03-21T13:56:40Z</time>
      </trkpt>
      <trkpt lat="44.99782" lon="5.1991">
        <ele>587</ele>
        <time>2023-03-21T13:56:48Z</time>
      </trkpt>
      <trkpt lat="44.99757" lon="5.19882">
        <ele>583</ele>
        <time>2023-03-21T13:57:15Z</time>
      </trkpt>
      <trkpt lat="44.99724" lon="5.19862">
        <ele>580</ele>
        <time>2023-03-21T13:57:47Z</time>
      </trkpt>
      <trkpt lat="44.99717" lon="5.19861">
        <ele>579</ele>
        <time>2023-03-21T13:57:54Z</time>
      </trkpt>
      <trkpt lat="44.99703" lon="5.19851">
        <ele>576</ele>
        <time>2023-03-21T13:58:09Z</time>
      </trkpt>
      <trkpt lat="44.99696" lon="5.19849">
        <ele>575</ele>
        <time>2023-03-21T13:58:16Z</time>
      </trkpt>
      <trkpt lat="44.99689" lon="5.19841">
        <ele>574</ele>
        <time>2023-03-21T13:58:23Z</time>
      </trkpt>
      <trkpt lat="44.99667" lon="5.19823">
        <ele>570</ele>
        <time>2023-03-21T13:58:56Z</time>
      </trkpt>
      <trkpt lat="44.99659" lon="5.1982">
        <ele>568</ele>
        <time>2023-03-21T13:59:10Z</time>
      </trkpt>
      <trkpt lat="44.99655" lon="5.19812">
        <ele>567</ele>
        <time>2023-03-21T13:59:25Z</time>
      </trkpt>
      <trkpt lat="44.99648" lon="5.19808">
        <ele>565</ele>
        <time>2023-03-21T13:59:34Z</time>
      </trkpt>
      <trkpt lat="44.99645" lon="5.19802">
        <ele>565</ele>
        <time>2023-03-21T14:00:02Z</time>
      </trkpt>
      <trkpt lat="44.99641" lon="5.19799">
        <ele>564</ele>
        <time>2023-03-21T14:00:06Z</time>
      </trkpt>
      <trkpt lat="44.99619" lon="5.19785">
        <ele>563</ele>
        <time>2023-03-21T14:00:27Z</time>
      </trkpt>
      <trkpt lat="44.99609" lon="5.19773">
        <ele>562</ele>
        <time>2023-03-21T14:00:39Z</time>
      </trkpt>
      <trkpt lat="44.99605" lon="5.19766">
        <ele>562</ele>
        <time>2023-03-21T14:00:44Z</time>
      </trkpt>
      <trkpt lat="44.99599" lon="5.19762">
        <ele>561</ele>
        <time>2023-03-21T14:00:50Z</time>
      </trkpt>
      <trkpt lat="44.99591" lon="5.1975">
        <ele>561</ele>
        <time>2023-03-21T14:01:00Z</time>
      </trkpt>
      <trkpt lat="44.99587" lon="5.19744">
        <ele>560</ele>
        <time>2023-03-21T14:01:06Z</time>
      </trkpt>
      <trkpt lat="44.99558" lon="5.19712">
        <ele>554</ele>
        <time>2023-03-21T14:01:40Z</time>
      </trkpt>
      <trkpt lat="44.99534" lon="5.1968">
        <ele>548</ele>
        <time>2023-03-21T14:02:11Z</time>
      </trkpt>
      <trkpt lat="44.99501" lon="5.19653">
        <ele>544</ele>
        <time>2023-03-21T14:02:46Z</time>
      </trkpt>
      <trkpt lat="44.9948" lon="5.19641">
        <ele>543</ele>
        <time>2023-03-21T14:03:09Z</time>
      </trkpt>
      <trkpt lat="44.99467" lon="5.19639">
        <ele>543</ele>
        <time>2023-03-21T14:03:23Z</time>
      </trkpt>
      <trkpt lat="44.99452" lon="5.19644">
        <ele>543</ele>
        <time>2023-03-21T14:03:42Z</time>
      </trkpt>
      <trkpt lat="44.99436" lon="5.19679">
        <ele>538</ele>
        <time>2023-03-21T14:04:12Z</time>
      </trkpt>
      <trkpt lat="44.9943" lon="5.19688">
        <ele>537</ele>
        <time>2023-03-21T14:04:20Z</time>
      </trkpt>
      <trkpt lat="44.99424" lon="5.19696">
        <ele>535</ele>
        <time>2023-03-21T14:04:29Z</time>
      </trkpt>
      <trkpt lat="44.99416" lon="5.19701">
        <ele>534</ele>
        <time>2023-03-21T14:04:36Z</time>
      </trkpt>
      <trkpt lat="44.99402" lon="5.19709">
        <ele>533</ele>
        <time>2023-03-21T14:04:51Z</time>
      </trkpt>
      <trkpt lat="44.99387" lon="5.1972">
        <ele>530</ele>
        <time>2023-03-21T14:05:07Z</time>
      </trkpt>
      <trkpt lat="44.99365" lon="5.19726">
        <ele>527</ele>
        <time>2023-03-21T14:05:26Z</time>
      </trkpt>
      <trkpt lat="44.99345" lon="5.19736">
        <ele>523</ele>
        <time>2023-03-21T14:05:47Z</time>
      </trkpt>
      <trkpt lat="44.99331" lon="5.19747">
        <ele>522</ele>
        <time>2023-03-21T14:06:02Z</time>
      </trkpt>
      <trkpt lat="44.99301" lon="5.19764">
        <ele>521</ele>
        <time>2023-03-21T14:06:32Z</time>
      </trkpt>
      <trkpt lat="44.99286" lon="5.19773">
        <ele>520</ele>
        <time>2023-03-21T14:06:46Z</time>
      </trkpt>
      <trkpt lat="44.99277" lon="5.19777">
        <ele>519</ele>
        <time>2023-03-21T14:06:56Z</time>
      </trkpt>
      <trkpt lat="44.99269" lon="5.19778">
        <ele>517</ele>
        <time>2023-03-21T14:07:01Z</time>
      </trkpt>
      <trkpt lat="44.99254" lon="5.1979">
        <ele>515</ele>
        <time>2023-03-21T14:07:15Z</time>
      </trkpt>
      <trkpt lat="44.9924" lon="5.19795">
        <ele>512</ele>
        <time>2023-03-21T14:07:29Z</time>
      </trkpt>
      <trkpt lat="44.99234" lon="5.19801">
        <ele>512</ele>
        <time>2023-03-21T14:07:37Z</time>
      </trkpt>
      <trkpt lat="44.99227" lon="5.19806">
        <ele>509</ele>
        <time>2023-03-21T14:07:44Z</time>
      </trkpt>
      <trkpt lat="44.99221" lon="5.19809">
        <ele>509</ele>
        <time>2023-03-21T14:07:50Z</time>
      </trkpt>
      <trkpt lat="44.99214" lon="5.19812">
        <ele>507</ele>
        <time>2023-03-21T14:07:56Z</time>
      </trkpt>
      <trkpt lat="44.99196" lon="5.19817">
        <ele>506</ele>
        <time>2023-03-21T14:08:11Z</time>
      </trkpt>
      <trkpt lat="44.99188" lon="5.19819">
        <ele>507</ele>
        <time>2023-03-21T14:08:17Z</time>
      </trkpt>
      <trkpt lat="44.99179" lon="5.19819">
        <ele>507</ele>
        <time>2023-03-21T14:08:24Z</time>
      </trkpt>
      <trkpt lat="44.99171" lon="5.19819">
        <ele>507</ele>
        <time>2023-03-21T14:08:31Z</time>
      </trkpt>
      <trkpt lat="44.99165" lon="5.19814">
        <ele>506</ele>
        <time>2023-03-21T14:08:48Z</time>
      </trkpt>
      <trkpt lat="44.99157" lon="5.19817">
        <ele>508</ele>
        <time>2023-03-21T14:09:06Z</time>
      </trkpt>
      <trkpt lat="44.99149" lon="5.1983">
        <ele>510</ele>
        <time>2023-03-21T14:09:17Z</time>
      </trkpt>
      <trkpt lat="44.9915" lon="5.19846">
        <ele>509</ele>
        <time>2023-03-21T14:09:28Z</time>
      </trkpt>
      <trkpt lat="44.99155" lon="5.19866">
        <ele>505</ele>
        <time>2023-03-21T14:09:41Z</time>
      </trkpt>
    </trkseg>
  </trk>
</gpx>